<?xml version="1.0" encoding="UTF-8" standalone="no" ?><gpx xmlns="http://www.topografix.com/GPX/1/1" xmlns:gpxx="http://www.garmin.com/xmlschemas/GpxExtensions/v3" xmlns:wptx1="http://www.garmin.com/xmlschemas/WaypointExtension/v1" xmlns:gpxtpx="http://www.garmin.com/xmlschemas/TrackPointExtension/v1" creator="GuideVTT.com" version="1.1" xmlns:xsi="http://www.w3.org/2001/XMLSchema-instance" xsi:schemaLocation="http://www.topografix.com/GPX/1/1 http://www.topografix.com/GPX/1/1/gpx.xsd http://www.garmin.com/xmlschemas/GpxExtensions/v3 http://www8.garmin.com/xmlschemas/GpxExtensionsv3.xsd http://www.garmin.com/xmlschemas/WaypointExtension/v1 http://www8.garmin.com/xmlschemas/WaypointExtensionv1.xsd http://www.garmin.com/xmlschemas/TrackPointExtension/v1 http://www.garmin.com/xmlschemas/TrackPointExtensionv1.xsd">
<metadata><link href="http://www.garmin.com"><text>Garmin International</text></link><time>2013-06-22T15:13:50Z</time></metadata>
<trk><name>vtt_2016-08-18_57b5c618da31138688f28b87.gpx</name><extensions><gpxx:TrackExtension><gpxx:DisplayColor>Cyan</gpxx:DisplayColor></gpxx:TrackExtension></extensions><trkseg>
<trkpt lat="48.88399887085" lon="2.6307232379913"><ele></ele><time>2025-9-24T4:38:2Z</time></trkpt>
<trkpt lat="48.88399887085" lon="2.6307232379913"><ele></ele><time>2025-9-24T4:38:5Z</time></trkpt>
<trkpt lat="48.884071350098" lon="2.6306219100952"><ele></ele><time>2025-9-24T4:38:8Z</time></trkpt>
<trkpt lat="48.88415145874" lon="2.6305136680603"><ele></ele><time>2025-9-24T4:38:11Z</time></trkpt>
<trkpt lat="48.884208679199" lon="2.6304540634155"><ele></ele><time>2025-9-24T4:38:14Z</time></trkpt>
<trkpt lat="48.884258270264" lon="2.6304087638855"><ele></ele><time>2025-9-24T4:38:17Z</time></trkpt>
<trkpt lat="48.884304046631" lon="2.6303598880768"><ele></ele><time>2025-9-24T4:38:20Z</time></trkpt>
<trkpt lat="48.884357452393" lon="2.6302967071533"><ele></ele><time>2025-9-24T4:38:23Z</time></trkpt>
<trkpt lat="48.884414672852" lon="2.6302349567413"><ele></ele><time>2025-9-24T4:38:26Z</time></trkpt>
<trkpt lat="48.884479522705" lon="2.6301691532135"><ele></ele><time>2025-9-24T4:38:29Z</time></trkpt>
<trkpt lat="48.884540557861" lon="2.6300995349884"><ele></ele><time>2025-9-24T4:38:32Z</time></trkpt>
<trkpt lat="48.884601593018" lon="2.6300382614136"><ele></ele><time>2025-9-24T4:38:35Z</time></trkpt>
<trkpt lat="48.884670257568" lon="2.6299669742584"><ele></ele><time>2025-9-24T4:38:38Z</time></trkpt>
<trkpt lat="48.884735107422" lon="2.6298778057098"><ele></ele><time>2025-9-24T4:38:41Z</time></trkpt>
<trkpt lat="48.884803771973" lon="2.6298100948334"><ele></ele><time>2025-9-24T4:38:44Z</time></trkpt>
<trkpt lat="48.884872436523" lon="2.6297342777252"><ele></ele><time>2025-9-24T4:38:47Z</time></trkpt>
<trkpt lat="48.884918212891" lon="2.6296739578247"><ele></ele><time>2025-9-24T4:38:50Z</time></trkpt>
<trkpt lat="48.884967803955" lon="2.629611492157"><ele></ele><time>2025-9-24T4:38:53Z</time></trkpt>
<trkpt lat="48.88501739502" lon="2.6295533180237"><ele></ele><time>2025-9-24T4:38:56Z</time></trkpt>
<trkpt lat="48.885112762451" lon="2.6294457912445"><ele></ele><time>2025-9-24T4:38:59Z</time></trkpt>
<trkpt lat="48.885166168213" lon="2.6293802261353"><ele></ele><time>2025-9-24T4:39:2Z</time></trkpt>
<trkpt lat="48.88521194458" lon="2.6293261051178"><ele></ele><time>2025-9-24T4:39:5Z</time></trkpt>
<trkpt lat="48.88521194458" lon="2.6293261051178"><ele></ele><time>2025-9-24T4:39:8Z</time></trkpt>
<trkpt lat="48.885314941406" lon="2.6291534900665"><ele></ele><time>2025-9-24T4:39:11Z</time></trkpt>
<trkpt lat="48.885364532471" lon="2.6290681362152"><ele></ele><time>2025-9-24T4:39:14Z</time></trkpt>
<trkpt lat="48.885417938232" lon="2.6289892196655"><ele></ele><time>2025-9-24T4:39:17Z</time></trkpt>
<trkpt lat="48.885475158691" lon="2.6289179325104"><ele></ele><time>2025-9-24T4:39:20Z</time></trkpt>
<trkpt lat="48.885555267334" lon="2.6289083957672"><ele></ele><time>2025-9-24T4:39:23Z</time></trkpt>
<trkpt lat="48.885639190674" lon="2.6289896965027"><ele></ele><time>2025-9-24T4:39:26Z</time></trkpt>
<trkpt lat="48.885711669922" lon="2.6290769577026"><ele></ele><time>2025-9-24T4:39:29Z</time></trkpt>
<trkpt lat="48.885757446289" lon="2.6291682720184"><ele></ele><time>2025-9-24T4:39:32Z</time></trkpt>
<trkpt lat="48.885803222656" lon="2.6292717456818"><ele></ele><time>2025-9-24T4:39:35Z</time></trkpt>
<trkpt lat="48.885864257812" lon="2.6293683052063"><ele></ele><time>2025-9-24T4:39:38Z</time></trkpt>
<trkpt lat="48.885925292969" lon="2.6294610500336"><ele></ele><time>2025-9-24T4:39:41Z</time></trkpt>
<trkpt lat="48.885974884033" lon="2.6295535564423"><ele></ele><time>2025-9-24T4:39:44Z</time></trkpt>
<trkpt lat="48.886013031006" lon="2.6296455860138"><ele></ele><time>2025-9-24T4:39:47Z</time></trkpt>
<trkpt lat="48.886070251465" lon="2.629682302475"><ele></ele><time>2025-9-24T4:39:50Z</time></trkpt>
<trkpt lat="48.886138916016" lon="2.6296381950378"><ele></ele><time>2025-9-24T4:39:53Z</time></trkpt>
<trkpt lat="48.886199951172" lon="2.6295650005341"><ele></ele><time>2025-9-24T4:39:56Z</time></trkpt>
<trkpt lat="48.886257171631" lon="2.6294851303101"><ele></ele><time>2025-9-24T4:39:59Z</time></trkpt>
<trkpt lat="48.886318206787" lon="2.629412651062"><ele></ele><time>2025-9-24T4:40:2Z</time></trkpt>
<trkpt lat="48.886383056641" lon="2.6293432712555"><ele></ele><time>2025-9-24T4:40:5Z</time></trkpt>
<trkpt lat="48.886447906494" lon="2.62926197052"><ele></ele><time>2025-9-24T4:40:8Z</time></trkpt>
<trkpt lat="48.886516571045" lon="2.6291656494141"><ele></ele><time>2025-9-24T4:40:11Z</time></trkpt>
<trkpt lat="48.886581420898" lon="2.6290745735168"><ele></ele><time>2025-9-24T4:40:14Z</time></trkpt>
<trkpt lat="48.886631011963" lon="2.6289923191071"><ele></ele><time>2025-9-24T4:40:17Z</time></trkpt>
<trkpt lat="48.886684417725" lon="2.6289117336273"><ele></ele><time>2025-9-24T4:40:20Z</time></trkpt>
<trkpt lat="48.886722564697" lon="2.6288452148438"><ele></ele><time>2025-9-24T4:40:23Z</time></trkpt>
<trkpt lat="48.886768341064" lon="2.628767490387"><ele></ele><time>2025-9-24T4:40:26Z</time></trkpt>
<trkpt lat="48.886806488037" lon="2.6286814212799"><ele></ele><time>2025-9-24T4:40:29Z</time></trkpt>
<trkpt lat="48.886829376221" lon="2.6285881996155"><ele></ele><time>2025-9-24T4:40:32Z</time></trkpt>
<trkpt lat="48.886829376221" lon="2.6285881996155"><ele></ele><time>2025-9-24T4:40:35Z</time></trkpt>
<trkpt lat="48.886825561523" lon="2.6284139156342"><ele></ele><time>2025-9-24T4:40:38Z</time></trkpt>
<trkpt lat="48.886829376221" lon="2.6283111572266"><ele></ele><time>2025-9-24T4:40:41Z</time></trkpt>
<trkpt lat="48.886840820312" lon="2.6282088756561"><ele></ele><time>2025-9-24T4:40:44Z</time></trkpt>
<trkpt lat="48.886867523193" lon="2.6281065940857"><ele></ele><time>2025-9-24T4:40:47Z</time></trkpt>
<trkpt lat="48.886913299561" lon="2.6280219554901"><ele></ele><time>2025-9-24T4:40:50Z</time></trkpt>
<trkpt lat="48.88697052002" lon="2.6279408931732"><ele></ele><time>2025-9-24T4:40:53Z</time></trkpt>
<trkpt lat="48.887027740479" lon="2.627863407135"><ele></ele><time>2025-9-24T4:40:56Z</time></trkpt>
<trkpt lat="48.887084960938" lon="2.6278023719788"><ele></ele><time>2025-9-24T4:40:59Z</time></trkpt>
<trkpt lat="48.887149810791" lon="2.6277370452881"><ele></ele><time>2025-9-24T4:41:2Z</time></trkpt>
<trkpt lat="48.887214660645" lon="2.62766289711"><ele></ele><time>2025-9-24T4:41:5Z</time></trkpt>
<trkpt lat="48.887279510498" lon="2.627593755722"><ele></ele><time>2025-9-24T4:41:8Z</time></trkpt>
<trkpt lat="48.887340545654" lon="2.6275110244751"><ele></ele><time>2025-9-24T4:41:11Z</time></trkpt>
<trkpt lat="48.887386322021" lon="2.6274147033691"><ele></ele><time>2025-9-24T4:41:14Z</time></trkpt>
<trkpt lat="48.887413024902" lon="2.6273174285889"><ele></ele><time>2025-9-24T4:41:17Z</time></trkpt>
<trkpt lat="48.887439727783" lon="2.6272268295288"><ele></ele><time>2025-9-24T4:41:20Z</time></trkpt>
<trkpt lat="48.887466430664" lon="2.6270990371704"><ele></ele><time>2025-9-24T4:41:23Z</time></trkpt>
<trkpt lat="48.887504577637" lon="2.6269896030426"><ele></ele><time>2025-9-24T4:41:26Z</time></trkpt>
<trkpt lat="48.887561798096" lon="2.6269133090973"><ele></ele><time>2025-9-24T4:41:29Z</time></trkpt>
<trkpt lat="48.88761138916" lon="2.6268725395203"><ele></ele><time>2025-9-24T4:41:32Z</time></trkpt>
<trkpt lat="48.88761138916" lon="2.6268725395203"><ele></ele><time>2025-9-24T4:41:35Z</time></trkpt>
<trkpt lat="48.887699127197" lon="2.6268796920776"><ele></ele><time>2025-9-24T4:41:38Z</time></trkpt>
<trkpt lat="48.887767791748" lon="2.6269285678864"><ele></ele><time>2025-9-24T4:41:41Z</time></trkpt>
<trkpt lat="48.887832641602" lon="2.6269962787628"><ele></ele><time>2025-9-24T4:41:44Z</time></trkpt>
<trkpt lat="48.887886047363" lon="2.62708568573"><ele></ele><time>2025-9-24T4:41:47Z</time></trkpt>
<trkpt lat="48.887928009033" lon="2.6271729469299"><ele></ele><time>2025-9-24T4:41:50Z</time></trkpt>
<trkpt lat="48.887977600098" lon="2.6272556781769"><ele></ele><time>2025-9-24T4:41:53Z</time></trkpt>
<trkpt lat="48.888023376465" lon="2.6273412704468"><ele></ele><time>2025-9-24T4:41:56Z</time></trkpt>
<trkpt lat="48.888072967529" lon="2.6274430751801"><ele></ele><time>2025-9-24T4:41:59Z</time></trkpt>
<trkpt lat="48.888149261475" lon="2.6275818347931"><ele></ele><time>2025-9-24T4:42:2Z</time></trkpt>
<trkpt lat="48.888198852539" lon="2.6276731491089"><ele></ele><time>2025-9-24T4:42:5Z</time></trkpt>
<trkpt lat="48.888240814209" lon="2.6277616024017"><ele></ele><time>2025-9-24T4:42:8Z</time></trkpt>
<trkpt lat="48.888294219971" lon="2.6278550624847"><ele></ele><time>2025-9-24T4:42:11Z</time></trkpt>
<trkpt lat="48.888347625732" lon="2.627950668335"><ele></ele><time>2025-9-24T4:42:14Z</time></trkpt>
<trkpt lat="48.888397216797" lon="2.6280546188354"><ele></ele><time>2025-9-24T4:42:17Z</time></trkpt>
<trkpt lat="48.888450622559" lon="2.6281599998474"><ele></ele><time>2025-9-24T4:42:20Z</time></trkpt>
<trkpt lat="48.888511657715" lon="2.6282682418823"><ele></ele><time>2025-9-24T4:42:23Z</time></trkpt>
<trkpt lat="48.888576507568" lon="2.6283800601959"><ele></ele><time>2025-9-24T4:42:26Z</time></trkpt>
<trkpt lat="48.888645172119" lon="2.6284976005554"><ele></ele><time>2025-9-24T4:42:29Z</time></trkpt>
<trkpt lat="48.888710021973" lon="2.6286189556122"><ele></ele><time>2025-9-24T4:42:32Z</time></trkpt>
<trkpt lat="48.888778686523" lon="2.6287484169006"><ele></ele><time>2025-9-24T4:42:35Z</time></trkpt>
<trkpt lat="48.888847351074" lon="2.6288855075836"><ele></ele><time>2025-9-24T4:42:38Z</time></trkpt>
<trkpt lat="48.888916015625" lon="2.6290192604065"><ele></ele><time>2025-9-24T4:42:41Z</time></trkpt>
<trkpt lat="48.88899230957" lon="2.629157781601"><ele></ele><time>2025-9-24T4:42:44Z</time></trkpt>
<trkpt lat="48.889064788818" lon="2.6292974948883"><ele></ele><time>2025-9-24T4:42:47Z</time></trkpt>
<trkpt lat="48.889144897461" lon="2.6294441223145"><ele></ele><time>2025-9-24T4:42:50Z</time></trkpt>
<trkpt lat="48.889228820801" lon="2.6295886039734"><ele></ele><time>2025-9-24T4:42:53Z</time></trkpt>
<trkpt lat="48.889308929443" lon="2.6297402381897"><ele></ele><time>2025-9-24T4:42:56Z</time></trkpt>
<trkpt lat="48.889389038086" lon="2.6298856735229"><ele></ele><time>2025-9-24T4:42:59Z</time></trkpt>
<trkpt lat="48.889469146729" lon="2.6300320625305"><ele></ele><time>2025-9-24T4:43:2Z</time></trkpt>
<trkpt lat="48.889545440674" lon="2.6301822662354"><ele></ele><time>2025-9-24T4:43:5Z</time></trkpt>
<trkpt lat="48.889621734619" lon="2.6303241252899"><ele></ele><time>2025-9-24T4:43:8Z</time></trkpt>
<trkpt lat="48.88969039917" lon="2.6304636001587"><ele></ele><time>2025-9-24T4:43:11Z</time></trkpt>
<trkpt lat="48.889762878418" lon="2.6306097507477"><ele></ele><time>2025-9-24T4:43:14Z</time></trkpt>
<trkpt lat="48.889842987061" lon="2.6307535171509"><ele></ele><time>2025-9-24T4:43:17Z</time></trkpt>
<trkpt lat="48.889911651611" lon="2.6308851242065"><ele></ele><time>2025-9-24T4:43:20Z</time></trkpt>
<trkpt lat="48.889972686768" lon="2.6310057640076"><ele></ele><time>2025-9-24T4:43:23Z</time></trkpt>
<trkpt lat="48.890037536621" lon="2.631119966507"><ele></ele><time>2025-9-24T4:43:26Z</time></trkpt>
<trkpt lat="48.890098571777" lon="2.6312255859375"><ele></ele><time>2025-9-24T4:43:29Z</time></trkpt>
<trkpt lat="48.890163421631" lon="2.6313369274139"><ele></ele><time>2025-9-24T4:43:32Z</time></trkpt>
<trkpt lat="48.890209197998" lon="2.6314346790314"><ele></ele><time>2025-9-24T4:43:35Z</time></trkpt>
<trkpt lat="48.890209197998" lon="2.6314346790314"><ele></ele><time>2025-9-24T4:43:38Z</time></trkpt>
<trkpt lat="48.890289306641" lon="2.6316039562225"><ele></ele><time>2025-9-24T4:43:41Z</time></trkpt>
<trkpt lat="48.890331268311" lon="2.6316909790039"><ele></ele><time>2025-9-24T4:43:44Z</time></trkpt>
<trkpt lat="48.890377044678" lon="2.6317775249481"><ele></ele><time>2025-9-24T4:43:47Z</time></trkpt>
<trkpt lat="48.890426635742" lon="2.6318686008453"><ele></ele><time>2025-9-24T4:43:50Z</time></trkpt>
<trkpt lat="48.890426635742" lon="2.6318686008453"><ele></ele><time>2025-9-24T4:43:53Z</time></trkpt>
<trkpt lat="48.89049911499" lon="2.63197016716"><ele></ele><time>2025-9-24T4:43:56Z</time></trkpt>
<trkpt lat="48.89054107666" lon="2.6320352554321"><ele></ele><time>2025-9-24T4:43:59Z</time></trkpt>
<trkpt lat="48.89054107666" lon="2.6320352554321"><ele></ele><time>2025-9-24T4:44:2Z</time></trkpt>
<trkpt lat="48.890613555908" lon="2.6321651935577"><ele></ele><time>2025-9-24T4:44:5Z</time></trkpt>
<trkpt lat="48.890613555908" lon="2.6321651935577"><ele></ele><time>2025-9-24T4:44:8Z</time></trkpt>
<trkpt lat="48.890655517578" lon="2.6322720050812"><ele></ele><time>2025-9-24T4:44:11Z</time></trkpt>
<trkpt lat="48.890655517578" lon="2.6322720050812"><ele></ele><time>2025-9-24T4:44:14Z</time></trkpt>
<trkpt lat="48.890701293945" lon="2.6324055194855"><ele></ele><time>2025-9-24T4:44:17Z</time></trkpt>
<trkpt lat="48.890712738037" lon="2.6324996948242"><ele></ele><time>2025-9-24T4:44:20Z</time></trkpt>
<trkpt lat="48.890712738037" lon="2.6324996948242"><ele></ele><time>2025-9-24T4:44:23Z</time></trkpt>
<trkpt lat="48.89070892334" lon="2.6326313018799"><ele></ele><time>2025-9-24T4:44:26Z</time></trkpt>
<trkpt lat="48.89070892334" lon="2.6326313018799"><ele></ele><time>2025-9-24T4:44:29Z</time></trkpt>
<trkpt lat="48.890724182129" lon="2.6327397823334"><ele></ele><time>2025-9-24T4:44:32Z</time></trkpt>
<trkpt lat="48.890739440918" lon="2.632874250412"><ele></ele><time>2025-9-24T4:44:35Z</time></trkpt>
<trkpt lat="48.890743255615" lon="2.6329753398895"><ele></ele><time>2025-9-24T4:44:38Z</time></trkpt>
<trkpt lat="48.890758514404" lon="2.6330780982971"><ele></ele><time>2025-9-24T4:44:41Z</time></trkpt>
<trkpt lat="48.890781402588" lon="2.6331751346588"><ele></ele><time>2025-9-24T4:44:44Z</time></trkpt>
<trkpt lat="48.890808105469" lon="2.633260011673"><ele></ele><time>2025-9-24T4:44:47Z</time></trkpt>
<trkpt lat="48.890842437744" lon="2.6333563327789"><ele></ele><time>2025-9-24T4:44:50Z</time></trkpt>
<trkpt lat="48.890888214111" lon="2.633460521698"><ele></ele><time>2025-9-24T4:44:53Z</time></trkpt>
<trkpt lat="48.890941619873" lon="2.6335783004761"><ele></ele><time>2025-9-24T4:44:56Z</time></trkpt>
<trkpt lat="48.891002655029" lon="2.6336922645569"><ele></ele><time>2025-9-24T4:44:59Z</time></trkpt>
<trkpt lat="48.891063690186" lon="2.6338038444519"><ele></ele><time>2025-9-24T4:45:2Z</time></trkpt>
<trkpt lat="48.891132354736" lon="2.6339437961578"><ele></ele><time>2025-9-24T4:45:5Z</time></trkpt>
<trkpt lat="48.89119720459" lon="2.6340646743774"><ele></ele><time>2025-9-24T4:45:8Z</time></trkpt>
<trkpt lat="48.891250610352" lon="2.6341722011566"><ele></ele><time>2025-9-24T4:45:11Z</time></trkpt>
<trkpt lat="48.891300201416" lon="2.6342737674713"><ele></ele><time>2025-9-24T4:45:14Z</time></trkpt>
<trkpt lat="48.891357421875" lon="2.6344027519226"><ele></ele><time>2025-9-24T4:45:17Z</time></trkpt>
<trkpt lat="48.891414642334" lon="2.6345264911652"><ele></ele><time>2025-9-24T4:45:20Z</time></trkpt>
<trkpt lat="48.891464233398" lon="2.6346306800842"><ele></ele><time>2025-9-24T4:45:23Z</time></trkpt>
<trkpt lat="48.89151763916" lon="2.6347441673279"><ele></ele><time>2025-9-24T4:45:26Z</time></trkpt>
<trkpt lat="48.891571044922" lon="2.6348557472229"><ele></ele><time>2025-9-24T4:45:29Z</time></trkpt>
<trkpt lat="48.891628265381" lon="2.6349594593048"><ele></ele><time>2025-9-24T4:45:32Z</time></trkpt>
<trkpt lat="48.891681671143" lon="2.6350581645966"><ele></ele><time>2025-9-24T4:45:35Z</time></trkpt>
<trkpt lat="48.891738891602" lon="2.6351718902588"><ele></ele><time>2025-9-24T4:45:38Z</time></trkpt>
<trkpt lat="48.891788482666" lon="2.6352698802948"><ele></ele><time>2025-9-24T4:45:41Z</time></trkpt>
<trkpt lat="48.891849517822" lon="2.6354207992554"><ele></ele><time>2025-9-24T4:45:44Z</time></trkpt>
<trkpt lat="48.891895294189" lon="2.6355376243591"><ele></ele><time>2025-9-24T4:45:47Z</time></trkpt>
<trkpt lat="48.891948699951" lon="2.6356587409973"><ele></ele><time>2025-9-24T4:45:50Z</time></trkpt>
<trkpt lat="48.891998291016" lon="2.6357800960541"><ele></ele><time>2025-9-24T4:45:53Z</time></trkpt>
<trkpt lat="48.892063140869" lon="2.6359112262726"><ele></ele><time>2025-9-24T4:45:56Z</time></trkpt>
<trkpt lat="48.892124176025" lon="2.6360373497009"><ele></ele><time>2025-9-24T4:45:59Z</time></trkpt>
<trkpt lat="48.892177581787" lon="2.6361498832703"><ele></ele><time>2025-9-24T4:46:2Z</time></trkpt>
<trkpt lat="48.892219543457" lon="2.6362447738647"><ele></ele><time>2025-9-24T4:46:5Z</time></trkpt>
<trkpt lat="48.89225769043" lon="2.6363463401794"><ele></ele><time>2025-9-24T4:46:8Z</time></trkpt>
<trkpt lat="48.892307281494" lon="2.6364650726318"><ele></ele><time>2025-9-24T4:46:11Z</time></trkpt>
<trkpt lat="48.892360687256" lon="2.6365811824799"><ele></ele><time>2025-9-24T4:46:14Z</time></trkpt>
<trkpt lat="48.89241027832" lon="2.6366806030273"><ele></ele><time>2025-9-24T4:46:17Z</time></trkpt>
<trkpt lat="48.89245223999" lon="2.6367616653442"><ele></ele><time>2025-9-24T4:46:20Z</time></trkpt>
<trkpt lat="48.89249420166" lon="2.6368541717529"><ele></ele><time>2025-9-24T4:46:23Z</time></trkpt>
<trkpt lat="48.892543792725" lon="2.6369650363922"><ele></ele><time>2025-9-24T4:46:26Z</time></trkpt>
<trkpt lat="48.892581939697" lon="2.6370685100555"><ele></ele><time>2025-9-24T4:46:29Z</time></trkpt>
<trkpt lat="48.892623901367" lon="2.6371932029724"><ele></ele><time>2025-9-24T4:46:32Z</time></trkpt>
<trkpt lat="48.892658233643" lon="2.6372966766357"><ele></ele><time>2025-9-24T4:46:35Z</time></trkpt>
<trkpt lat="48.892707824707" lon="2.6374197006226"><ele></ele><time>2025-9-24T4:46:38Z</time></trkpt>
<trkpt lat="48.892742156982" lon="2.6375205516815"><ele></ele><time>2025-9-24T4:46:41Z</time></trkpt>
<trkpt lat="48.89278793335" lon="2.6376311779022"><ele></ele><time>2025-9-24T4:46:44Z</time></trkpt>
<trkpt lat="48.89282989502" lon="2.637734413147"><ele></ele><time>2025-9-24T4:46:47Z</time></trkpt>
<trkpt lat="48.892875671387" lon="2.637818813324"><ele></ele><time>2025-9-24T4:46:50Z</time></trkpt>
<trkpt lat="48.892913818359" lon="2.6378939151764"><ele></ele><time>2025-9-24T4:46:53Z</time></trkpt>
<trkpt lat="48.892971038818" lon="2.6380107402802"><ele></ele><time>2025-9-24T4:46:56Z</time></trkpt>
<trkpt lat="48.893020629883" lon="2.6381087303162"><ele></ele><time>2025-9-24T4:46:59Z</time></trkpt>
<trkpt lat="48.893062591553" lon="2.6381921768188"><ele></ele><time>2025-9-24T4:47:2Z</time></trkpt>
<trkpt lat="48.89310836792" lon="2.6382820606232"><ele></ele><time>2025-9-24T4:47:5Z</time></trkpt>
<trkpt lat="48.893157958984" lon="2.6383810043335"><ele></ele><time>2025-9-24T4:47:8Z</time></trkpt>
<trkpt lat="48.893211364746" lon="2.638491153717"><ele></ele><time>2025-9-24T4:47:11Z</time></trkpt>
<trkpt lat="48.893249511719" lon="2.6385793685913"><ele></ele><time>2025-9-24T4:47:14Z</time></trkpt>
<trkpt lat="48.893299102783" lon="2.6386919021606"><ele></ele><time>2025-9-24T4:47:17Z</time></trkpt>
<trkpt lat="48.893337249756" lon="2.6387887001038"><ele></ele><time>2025-9-24T4:47:20Z</time></trkpt>
<trkpt lat="48.893375396729" lon="2.6388854980469"><ele></ele><time>2025-9-24T4:47:23Z</time></trkpt>
<trkpt lat="48.893409729004" lon="2.6389665603638"><ele></ele><time>2025-9-24T4:47:26Z</time></trkpt>
<trkpt lat="48.893459320068" lon="2.6390662193298"><ele></ele><time>2025-9-24T4:47:29Z</time></trkpt>
<trkpt lat="48.893497467041" lon="2.6391823291779"><ele></ele><time>2025-9-24T4:47:32Z</time></trkpt>
<trkpt lat="48.893531799316" lon="2.6392805576324"><ele></ele><time>2025-9-24T4:47:35Z</time></trkpt>
<trkpt lat="48.893562316895" lon="2.6393632888794"><ele></ele><time>2025-9-24T4:47:38Z</time></trkpt>
<trkpt lat="48.89359664917" lon="2.6394553184509"><ele></ele><time>2025-9-24T4:47:41Z</time></trkpt>
<trkpt lat="48.893642425537" lon="2.6395511627197"><ele></ele><time>2025-9-24T4:47:44Z</time></trkpt>
<trkpt lat="48.893695831299" lon="2.6396625041962"><ele></ele><time>2025-9-24T4:47:47Z</time></trkpt>
<trkpt lat="48.893749237061" lon="2.6397631168365"><ele></ele><time>2025-9-24T4:47:50Z</time></trkpt>
<trkpt lat="48.89380645752" lon="2.6398677825928"><ele></ele><time>2025-9-24T4:47:53Z</time></trkpt>
<trkpt lat="48.893867492676" lon="2.6399619579315"><ele></ele><time>2025-9-24T4:47:56Z</time></trkpt>
<trkpt lat="48.893928527832" lon="2.6400513648987"><ele></ele><time>2025-9-24T4:47:59Z</time></trkpt>
<trkpt lat="48.893970489502" lon="2.6401348114014"><ele></ele><time>2025-9-24T4:48:2Z</time></trkpt>
<trkpt lat="48.89400100708" lon="2.640228509903"><ele></ele><time>2025-9-24T4:48:5Z</time></trkpt>
<trkpt lat="48.894039154053" lon="2.640328168869"><ele></ele><time>2025-9-24T4:48:8Z</time></trkpt>
<trkpt lat="48.894081115723" lon="2.6404395103455"><ele></ele><time>2025-9-24T4:48:11Z</time></trkpt>
<trkpt lat="48.894119262695" lon="2.6405618190765"><ele></ele><time>2025-9-24T4:48:14Z</time></trkpt>
<trkpt lat="48.894165039062" lon="2.6406934261322"><ele></ele><time>2025-9-24T4:48:17Z</time></trkpt>
<trkpt lat="48.894207000732" lon="2.6408095359802"><ele></ele><time>2025-9-24T4:48:20Z</time></trkpt>
<trkpt lat="48.894248962402" lon="2.6409168243408"><ele></ele><time>2025-9-24T4:48:23Z</time></trkpt>
<trkpt lat="48.894283294678" lon="2.6410162448883"><ele></ele><time>2025-9-24T4:48:26Z</time></trkpt>
<trkpt lat="48.89432144165" lon="2.6411197185516"><ele></ele><time>2025-9-24T4:48:29Z</time></trkpt>
<trkpt lat="48.894367218018" lon="2.6412394046783"><ele></ele><time>2025-9-24T4:48:32Z</time></trkpt>
<trkpt lat="48.894409179688" lon="2.6413476467133"><ele></ele><time>2025-9-24T4:48:35Z</time></trkpt>
<trkpt lat="48.894443511963" lon="2.6414415836334"><ele></ele><time>2025-9-24T4:48:38Z</time></trkpt>
<trkpt lat="48.894493103027" lon="2.6415424346924"><ele></ele><time>2025-9-24T4:48:41Z</time></trkpt>
<trkpt lat="48.894554138184" lon="2.6416535377502"><ele></ele><time>2025-9-24T4:48:44Z</time></trkpt>
<trkpt lat="48.89461517334" lon="2.6417665481567"><ele></ele><time>2025-9-24T4:48:47Z</time></trkpt>
<trkpt lat="48.894672393799" lon="2.6418743133545"><ele></ele><time>2025-9-24T4:48:50Z</time></trkpt>
<trkpt lat="48.894721984863" lon="2.641966342926"><ele></ele><time>2025-9-24T4:48:53Z</time></trkpt>
<trkpt lat="48.894771575928" lon="2.6420583724976"><ele></ele><time>2025-9-24T4:48:56Z</time></trkpt>
<trkpt lat="48.894824981689" lon="2.6421592235565"><ele></ele><time>2025-9-24T4:48:59Z</time></trkpt>
<trkpt lat="48.894878387451" lon="2.6422784328461"><ele></ele><time>2025-9-24T4:49:2Z</time></trkpt>
<trkpt lat="48.894931793213" lon="2.6424038410187"><ele></ele><time>2025-9-24T4:49:5Z</time></trkpt>
<trkpt lat="48.894981384277" lon="2.6425087451935"><ele></ele><time>2025-9-24T4:49:8Z</time></trkpt>
<trkpt lat="48.895027160645" lon="2.6425995826721"><ele></ele><time>2025-9-24T4:49:11Z</time></trkpt>
<trkpt lat="48.895069122314" lon="2.6426901817322"><ele></ele><time>2025-9-24T4:49:14Z</time></trkpt>
<trkpt lat="48.895111083984" lon="2.6427989006042"><ele></ele><time>2025-9-24T4:49:17Z</time></trkpt>
<trkpt lat="48.895153045654" lon="2.6429057121277"><ele></ele><time>2025-9-24T4:49:20Z</time></trkpt>
<trkpt lat="48.895198822021" lon="2.6430160999298"><ele></ele><time>2025-9-24T4:49:23Z</time></trkpt>
<trkpt lat="48.895252227783" lon="2.6431424617767"><ele></ele><time>2025-9-24T4:49:26Z</time></trkpt>
<trkpt lat="48.895301818848" lon="2.643262386322"><ele></ele><time>2025-9-24T4:49:29Z</time></trkpt>
<trkpt lat="48.895347595215" lon="2.6433708667755"><ele></ele><time>2025-9-24T4:49:32Z</time></trkpt>
<trkpt lat="48.895385742188" lon="2.6434667110443"><ele></ele><time>2025-9-24T4:49:35Z</time></trkpt>
<trkpt lat="48.895427703857" lon="2.6435661315918"><ele></ele><time>2025-9-24T4:49:38Z</time></trkpt>
<trkpt lat="48.895492553711" lon="2.643684387207"><ele></ele><time>2025-9-24T4:49:41Z</time></trkpt>
<trkpt lat="48.895542144775" lon="2.643780708313"><ele></ele><time>2025-9-24T4:49:44Z</time></trkpt>
<trkpt lat="48.89559173584" lon="2.6439018249512"><ele></ele><time>2025-9-24T4:49:47Z</time></trkpt>
<trkpt lat="48.895629882812" lon="2.6439955234528"><ele></ele><time>2025-9-24T4:49:50Z</time></trkpt>
<trkpt lat="48.895668029785" lon="2.6440920829773"><ele></ele><time>2025-9-24T4:49:53Z</time></trkpt>
<trkpt lat="48.895721435547" lon="2.644195318222"><ele></ele><time>2025-9-24T4:49:56Z</time></trkpt>
<trkpt lat="48.895782470703" lon="2.6442842483521"><ele></ele><time>2025-9-24T4:49:59Z</time></trkpt>
<trkpt lat="48.895835876465" lon="2.6443574428558"><ele></ele><time>2025-9-24T4:50:2Z</time></trkpt>
<trkpt lat="48.895900726318" lon="2.6444420814514"><ele></ele><time>2025-9-24T4:50:5Z</time></trkpt>
<trkpt lat="48.895973205566" lon="2.6445367336273"><ele></ele><time>2025-9-24T4:50:8Z</time></trkpt>
<trkpt lat="48.896045684814" lon="2.6446154117584"><ele></ele><time>2025-9-24T4:50:11Z</time></trkpt>
<trkpt lat="48.896118164062" lon="2.644688129425"><ele></ele><time>2025-9-24T4:50:14Z</time></trkpt>
<trkpt lat="48.896194458008" lon="2.6447639465332"><ele></ele><time>2025-9-24T4:50:17Z</time></trkpt>
<trkpt lat="48.896266937256" lon="2.6448354721069"><ele></ele><time>2025-9-24T4:50:20Z</time></trkpt>
<trkpt lat="48.896347045898" lon="2.6449117660522"><ele></ele><time>2025-9-24T4:50:23Z</time></trkpt>
<trkpt lat="48.896408081055" lon="2.6449785232544"><ele></ele><time>2025-9-24T4:50:26Z</time></trkpt>
<trkpt lat="48.896472930908" lon="2.645055770874"><ele></ele><time>2025-9-24T4:50:29Z</time></trkpt>
<trkpt lat="48.896530151367" lon="2.6451253890991"><ele></ele><time>2025-9-24T4:50:32Z</time></trkpt>
<trkpt lat="48.896591186523" lon="2.6451938152313"><ele></ele><time>2025-9-24T4:50:35Z</time></trkpt>
<trkpt lat="48.896659851074" lon="2.6452703475952"><ele></ele><time>2025-9-24T4:50:38Z</time></trkpt>
<trkpt lat="48.89673614502" lon="2.6453471183777"><ele></ele><time>2025-9-24T4:50:41Z</time></trkpt>
<trkpt lat="48.896800994873" lon="2.6454148292542"><ele></ele><time>2025-9-24T4:50:44Z</time></trkpt>
<trkpt lat="48.896865844727" lon="2.6454801559448"><ele></ele><time>2025-9-24T4:50:47Z</time></trkpt>
<trkpt lat="48.896942138672" lon="2.6455500125885"><ele></ele><time>2025-9-24T4:50:50Z</time></trkpt>
<trkpt lat="48.897018432617" lon="2.6456279754639"><ele></ele><time>2025-9-24T4:50:53Z</time></trkpt>
<trkpt lat="48.897094726562" lon="2.6457002162933"><ele></ele><time>2025-9-24T4:50:56Z</time></trkpt>
<trkpt lat="48.897163391113" lon="2.6457808017731"><ele></ele><time>2025-9-24T4:50:59Z</time></trkpt>
<trkpt lat="48.897228240967" lon="2.6458606719971"><ele></ele><time>2025-9-24T4:51:2Z</time></trkpt>
<trkpt lat="48.897296905518" lon="2.6459403038025"><ele></ele><time>2025-9-24T4:51:5Z</time></trkpt>
<trkpt lat="48.897392272949" lon="2.6460328102112"><ele></ele><time>2025-9-24T4:51:8Z</time></trkpt>
<trkpt lat="48.897487640381" lon="2.6461365222931"><ele></ele><time>2025-9-24T4:51:11Z</time></trkpt>
<trkpt lat="48.897575378418" lon="2.6462309360504"><ele></ele><time>2025-9-24T4:51:14Z</time></trkpt>
<trkpt lat="48.897663116455" lon="2.6463279724121"><ele></ele><time>2025-9-24T4:51:17Z</time></trkpt>
<trkpt lat="48.897758483887" lon="2.646409034729"><ele></ele><time>2025-9-24T4:51:20Z</time></trkpt>
<trkpt lat="48.897850036621" lon="2.6464965343475"><ele></ele><time>2025-9-24T4:51:23Z</time></trkpt>
<trkpt lat="48.897945404053" lon="2.6465814113617"><ele></ele><time>2025-9-24T4:51:26Z</time></trkpt>
<trkpt lat="48.89803314209" lon="2.6466779708862"><ele></ele><time>2025-9-24T4:51:29Z</time></trkpt>
<trkpt lat="48.898120880127" lon="2.646767616272"><ele></ele><time>2025-9-24T4:51:32Z</time></trkpt>
<trkpt lat="48.89820098877" lon="2.6468508243561"><ele></ele><time>2025-9-24T4:51:35Z</time></trkpt>
<trkpt lat="48.898296356201" lon="2.6469359397888"><ele></ele><time>2025-9-24T4:51:38Z</time></trkpt>
<trkpt lat="48.898387908936" lon="2.6470332145691"><ele></ele><time>2025-9-24T4:51:41Z</time></trkpt>
<trkpt lat="48.898456573486" lon="2.6471228599548"><ele></ele><time>2025-9-24T4:51:44Z</time></trkpt>
<trkpt lat="48.898544311523" lon="2.6472182273865"><ele></ele><time>2025-9-24T4:51:47Z</time></trkpt>
<trkpt lat="48.898632049561" lon="2.6473212242126"><ele></ele><time>2025-9-24T4:51:50Z</time></trkpt>
<trkpt lat="48.898704528809" lon="2.6474041938782"><ele></ele><time>2025-9-24T4:51:53Z</time></trkpt>
<trkpt lat="48.898780822754" lon="2.6474816799164"><ele></ele><time>2025-9-24T4:51:56Z</time></trkpt>
<trkpt lat="48.898849487305" lon="2.6475656032562"><ele></ele><time>2025-9-24T4:51:59Z</time></trkpt>
<trkpt lat="48.898921966553" lon="2.6476562023163"><ele></ele><time>2025-9-24T4:52:2Z</time></trkpt>
<trkpt lat="48.899002075195" lon="2.6477398872375"><ele></ele><time>2025-9-24T4:52:5Z</time></trkpt>
<trkpt lat="48.899082183838" lon="2.6478207111359"><ele></ele><time>2025-9-24T4:52:8Z</time></trkpt>
<trkpt lat="48.899150848389" lon="2.6478984355927"><ele></ele><time>2025-9-24T4:52:11Z</time></trkpt>
<trkpt lat="48.899223327637" lon="2.6479508876801"><ele></ele><time>2025-9-24T4:52:14Z</time></trkpt>
<trkpt lat="48.899311065674" lon="2.6479909420013"><ele></ele><time>2025-9-24T4:52:17Z</time></trkpt>
<trkpt lat="48.899402618408" lon="2.6480352878571"><ele></ele><time>2025-9-24T4:52:20Z</time></trkpt>
<trkpt lat="48.899482727051" lon="2.6480770111084"><ele></ele><time>2025-9-24T4:52:23Z</time></trkpt>
<trkpt lat="48.899562835693" lon="2.6480984687805"><ele></ele><time>2025-9-24T4:52:26Z</time></trkpt>
<trkpt lat="48.899642944336" lon="2.648108959198"><ele></ele><time>2025-9-24T4:52:29Z</time></trkpt>
<trkpt lat="48.899711608887" lon="2.6481249332428"><ele></ele><time>2025-9-24T4:52:32Z</time></trkpt>
<trkpt lat="48.899780273438" lon="2.6481313705444"><ele></ele><time>2025-9-24T4:52:35Z</time></trkpt>
<trkpt lat="48.899845123291" lon="2.6481354236603"><ele></ele><time>2025-9-24T4:52:38Z</time></trkpt>
<trkpt lat="48.899909973145" lon="2.6481449604034"><ele></ele><time>2025-9-24T4:52:41Z</time></trkpt>
<trkpt lat="48.899909973145" lon="2.6481449604034"><ele></ele><time>2025-9-24T4:52:44Z</time></trkpt>
<trkpt lat="48.900024414062" lon="2.6481719017029"><ele></ele><time>2025-9-24T4:52:47Z</time></trkpt>
<trkpt lat="48.900024414062" lon="2.6481719017029"><ele></ele><time>2025-9-24T4:52:50Z</time></trkpt>
<trkpt lat="48.900104522705" lon="2.6481850147247"><ele></ele><time>2025-9-24T4:52:53Z</time></trkpt>
<trkpt lat="48.900104522705" lon="2.6481850147247"><ele></ele><time>2025-9-24T4:52:56Z</time></trkpt>
<trkpt lat="48.900203704834" lon="2.6481866836548"><ele></ele><time>2025-9-24T4:52:59Z</time></trkpt>
<trkpt lat="48.900203704834" lon="2.6481866836548"><ele></ele><time>2025-9-24T4:53:2Z</time></trkpt>
<trkpt lat="48.900314331055" lon="2.6481945514679"><ele></ele><time>2025-9-24T4:53:5Z</time></trkpt>
<trkpt lat="48.900375366211" lon="2.6482033729553"><ele></ele><time>2025-9-24T4:53:8Z</time></trkpt>
<trkpt lat="48.900375366211" lon="2.6482033729553"><ele></ele><time>2025-9-24T4:53:11Z</time></trkpt>
<trkpt lat="48.900466918945" lon="2.6482162475586"><ele></ele><time>2025-9-24T4:53:14Z</time></trkpt>
<trkpt lat="48.900466918945" lon="2.6482162475586"><ele></ele><time>2025-9-24T4:53:17Z</time></trkpt>
<trkpt lat="48.900581359863" lon="2.6482305526733"><ele></ele><time>2025-9-24T4:53:20Z</time></trkpt>
<trkpt lat="48.900638580322" lon="2.6482441425323"><ele></ele><time>2025-9-24T4:53:23Z</time></trkpt>
<trkpt lat="48.900714874268" lon="2.6482689380646"><ele></ele><time>2025-9-24T4:53:26Z</time></trkpt>
<trkpt lat="48.900779724121" lon="2.6482961177826"><ele></ele><time>2025-9-24T4:53:29Z</time></trkpt>
<trkpt lat="48.900852203369" lon="2.6483356952667"><ele></ele><time>2025-9-24T4:53:32Z</time></trkpt>
<trkpt lat="48.900932312012" lon="2.6483862400055"><ele></ele><time>2025-9-24T4:53:35Z</time></trkpt>
<trkpt lat="48.901000976562" lon="2.6484282016754"><ele></ele><time>2025-9-24T4:53:38Z</time></trkpt>
<trkpt lat="48.901077270508" lon="2.6484706401825"><ele></ele><time>2025-9-24T4:53:41Z</time></trkpt>
<trkpt lat="48.90113067627" lon="2.6485092639923"><ele></ele><time>2025-9-24T4:53:44Z</time></trkpt>
<trkpt lat="48.901184082031" lon="2.6485514640808"><ele></ele><time>2025-9-24T4:53:47Z</time></trkpt>
<trkpt lat="48.901248931885" lon="2.6485922336578"><ele></ele><time>2025-9-24T4:53:50Z</time></trkpt>
<trkpt lat="48.901313781738" lon="2.6486346721649"><ele></ele><time>2025-9-24T4:53:53Z</time></trkpt>
<trkpt lat="48.901378631592" lon="2.6487059593201"><ele></ele><time>2025-9-24T4:53:56Z</time></trkpt>
<trkpt lat="48.901454925537" lon="2.6488049030304"><ele></ele><time>2025-9-24T4:53:59Z</time></trkpt>
<trkpt lat="48.901454925537" lon="2.6488049030304"><ele></ele><time>2025-9-24T4:54:2Z</time></trkpt>
<trkpt lat="48.901454925537" lon="2.6488049030304"><ele></ele><time>2025-9-24T4:54:5Z</time></trkpt>
<trkpt lat="48.901512145996" lon="2.6488544940948"><ele></ele><time>2025-9-24T4:54:8Z</time></trkpt>
<trkpt lat="48.901599884033" lon="2.6489672660828"><ele></ele><time>2025-9-24T4:54:11Z</time></trkpt>
<trkpt lat="48.901679992676" lon="2.6490380764008"><ele></ele><time>2025-9-24T4:54:14Z</time></trkpt>
<trkpt lat="48.901756286621" lon="2.6491229534149"><ele></ele><time>2025-9-24T4:54:17Z</time></trkpt>
<trkpt lat="48.901782989502" lon="2.6491746902466"><ele></ele><time>2025-9-24T4:54:20Z</time></trkpt>
<trkpt lat="48.901790618896" lon="2.6492314338684"><ele></ele><time>2025-9-24T4:54:23Z</time></trkpt>
<trkpt lat="48.901775360107" lon="2.6493034362793"><ele></ele><time>2025-9-24T4:54:26Z</time></trkpt>
<trkpt lat="48.901744842529" lon="2.6493928432465"><ele></ele><time>2025-9-24T4:54:29Z</time></trkpt>
<trkpt lat="48.901706695557" lon="2.6494956016541"><ele></ele><time>2025-9-24T4:54:32Z</time></trkpt>
<trkpt lat="48.90160369873" lon="2.6497204303741"><ele></ele><time>2025-9-24T4:54:35Z</time></trkpt>
<trkpt lat="48.901546478271" lon="2.6498370170593"><ele></ele><time>2025-9-24T4:54:38Z</time></trkpt>
<trkpt lat="48.901489257812" lon="2.6499571800232"><ele></ele><time>2025-9-24T4:54:41Z</time></trkpt>
<trkpt lat="48.901432037354" lon="2.6500885486603"><ele></ele><time>2025-9-24T4:54:44Z</time></trkpt>
<trkpt lat="48.901371002197" lon="2.6502201557159"><ele></ele><time>2025-9-24T4:54:47Z</time></trkpt>
<trkpt lat="48.901294708252" lon="2.6503660678864"><ele></ele><time>2025-9-24T4:54:50Z</time></trkpt>
<trkpt lat="48.901233673096" lon="2.6505169868469"><ele></ele><time>2025-9-24T4:54:53Z</time></trkpt>
<trkpt lat="48.901168823242" lon="2.650675535202"><ele></ele><time>2025-9-24T4:54:56Z</time></trkpt>
<trkpt lat="48.901100158691" lon="2.6508271694183"><ele></ele><time>2025-9-24T4:54:59Z</time></trkpt>
<trkpt lat="48.901039123535" lon="2.6509790420532"><ele></ele><time>2025-9-24T4:55:2Z</time></trkpt>
<trkpt lat="48.900974273682" lon="2.6511483192444"><ele></ele><time>2025-9-24T4:55:5Z</time></trkpt>
<trkpt lat="48.900905609131" lon="2.6513180732727"><ele></ele><time>2025-9-24T4:55:8Z</time></trkpt>
<trkpt lat="48.900833129883" lon="2.6514987945557"><ele></ele><time>2025-9-24T4:55:11Z</time></trkpt>
<trkpt lat="48.900749206543" lon="2.651691198349"><ele></ele><time>2025-9-24T4:55:14Z</time></trkpt>
<trkpt lat="48.9006690979" lon="2.6518731117249"><ele></ele><time>2025-9-24T4:55:17Z</time></trkpt>
<trkpt lat="48.900573730469" lon="2.6520636081696"><ele></ele><time>2025-9-24T4:55:20Z</time></trkpt>
<trkpt lat="48.900485992432" lon="2.6522269248962"><ele></ele><time>2025-9-24T4:55:23Z</time></trkpt>
<trkpt lat="48.900405883789" lon="2.6523752212524"><ele></ele><time>2025-9-24T4:55:26Z</time></trkpt>
<trkpt lat="48.900318145752" lon="2.6525340080261"><ele></ele><time>2025-9-24T4:55:29Z</time></trkpt>
<trkpt lat="48.900245666504" lon="2.6526696681976"><ele></ele><time>2025-9-24T4:55:32Z</time></trkpt>
<trkpt lat="48.900173187256" lon="2.6527967453003"><ele></ele><time>2025-9-24T4:55:35Z</time></trkpt>
<trkpt lat="48.9001121521" lon="2.6529107093811"><ele></ele><time>2025-9-24T4:55:38Z</time></trkpt>
<trkpt lat="48.900054931641" lon="2.6530089378357"><ele></ele><time>2025-9-24T4:55:41Z</time></trkpt>
<trkpt lat="48.899993896484" lon="2.6531126499176"><ele></ele><time>2025-9-24T4:55:44Z</time></trkpt>
<trkpt lat="48.899936676025" lon="2.653228521347"><ele></ele><time>2025-9-24T4:55:47Z</time></trkpt>
<trkpt lat="48.899875640869" lon="2.6533491611481"><ele></ele><time>2025-9-24T4:55:50Z</time></trkpt>
<trkpt lat="48.899822235107" lon="2.6534700393677"><ele></ele><time>2025-9-24T4:55:53Z</time></trkpt>
<trkpt lat="48.89977645874" lon="2.6535830497742"><ele></ele><time>2025-9-24T4:55:56Z</time></trkpt>
<trkpt lat="48.899726867676" lon="2.6536948680878"><ele></ele><time>2025-9-24T4:55:59Z</time></trkpt>
<trkpt lat="48.899681091309" lon="2.6538043022156"><ele></ele><time>2025-9-24T4:56:2Z</time></trkpt>
<trkpt lat="48.899631500244" lon="2.6539204120636"><ele></ele><time>2025-9-24T4:56:5Z</time></trkpt>
<trkpt lat="48.89958190918" lon="2.6540400981903"><ele></ele><time>2025-9-24T4:56:8Z</time></trkpt>
<trkpt lat="48.899528503418" lon="2.6541574001312"><ele></ele><time>2025-9-24T4:56:11Z</time></trkpt>
<trkpt lat="48.899482727051" lon="2.6542739868164"><ele></ele><time>2025-9-24T4:56:14Z</time></trkpt>
<trkpt lat="48.899440765381" lon="2.6543829441071"><ele></ele><time>2025-9-24T4:56:17Z</time></trkpt>
<trkpt lat="48.899387359619" lon="2.654495716095"><ele></ele><time>2025-9-24T4:56:20Z</time></trkpt>
<trkpt lat="48.899337768555" lon="2.6546165943146"><ele></ele><time>2025-9-24T4:56:23Z</time></trkpt>
<trkpt lat="48.899291992188" lon="2.6547229290009"><ele></ele><time>2025-9-24T4:56:26Z</time></trkpt>
<trkpt lat="48.89924621582" lon="2.6548266410828"><ele></ele><time>2025-9-24T4:56:29Z</time></trkpt>
<trkpt lat="48.899196624756" lon="2.6549370288849"><ele></ele><time>2025-9-24T4:56:32Z</time></trkpt>
<trkpt lat="48.899150848389" lon="2.6550405025482"><ele></ele><time>2025-9-24T4:56:35Z</time></trkpt>
<trkpt lat="48.899105072021" lon="2.6551525592804"><ele></ele><time>2025-9-24T4:56:38Z</time></trkpt>
<trkpt lat="48.899063110352" lon="2.6552684307098"><ele></ele><time>2025-9-24T4:56:41Z</time></trkpt>
<trkpt lat="48.899028778076" lon="2.6553852558136"><ele></ele><time>2025-9-24T4:56:44Z</time></trkpt>
<trkpt lat="48.898998260498" lon="2.6555016040802"><ele></ele><time>2025-9-24T4:56:47Z</time></trkpt>
<trkpt lat="48.898960113525" lon="2.6556215286255"><ele></ele><time>2025-9-24T4:56:50Z</time></trkpt>
<trkpt lat="48.89892578125" lon="2.6557438373566"><ele></ele><time>2025-9-24T4:56:53Z</time></trkpt>
<trkpt lat="48.898891448975" lon="2.6558647155762"><ele></ele><time>2025-9-24T4:56:56Z</time></trkpt>
<trkpt lat="48.898864746094" lon="2.6559829711914"><ele></ele><time>2025-9-24T4:56:59Z</time></trkpt>
<trkpt lat="48.898830413818" lon="2.6561062335968"><ele></ele><time>2025-9-24T4:57:2Z</time></trkpt>
<trkpt lat="48.898803710938" lon="2.6562309265137"><ele></ele><time>2025-9-24T4:57:5Z</time></trkpt>
<trkpt lat="48.898769378662" lon="2.6563432216644"><ele></ele><time>2025-9-24T4:57:8Z</time></trkpt>
<trkpt lat="48.898727416992" lon="2.6564588546753"><ele></ele><time>2025-9-24T4:57:11Z</time></trkpt>
<trkpt lat="48.898681640625" lon="2.656564950943"><ele></ele><time>2025-9-24T4:57:14Z</time></trkpt>
<trkpt lat="48.898632049561" lon="2.6566770076752"><ele></ele><time>2025-9-24T4:57:17Z</time></trkpt>
<trkpt lat="48.898582458496" lon="2.6567873954773"><ele></ele><time>2025-9-24T4:57:20Z</time></trkpt>
<trkpt lat="48.898536682129" lon="2.6568834781647"><ele></ele><time>2025-9-24T4:57:23Z</time></trkpt>
<trkpt lat="48.898487091064" lon="2.6569831371307"><ele></ele><time>2025-9-24T4:57:26Z</time></trkpt>
<trkpt lat="48.898441314697" lon="2.6570816040039"><ele></ele><time>2025-9-24T4:57:29Z</time></trkpt>
<trkpt lat="48.89839553833" lon="2.6571710109711"><ele></ele><time>2025-9-24T4:57:32Z</time></trkpt>
<trkpt lat="48.898349761963" lon="2.6572706699371"><ele></ele><time>2025-9-24T4:57:35Z</time></trkpt>
<trkpt lat="48.898307800293" lon="2.6573593616486"><ele></ele><time>2025-9-24T4:57:38Z</time></trkpt>
<trkpt lat="48.898265838623" lon="2.65744805336"><ele></ele><time>2025-9-24T4:57:41Z</time></trkpt>
<trkpt lat="48.898223876953" lon="2.6575503349304"><ele></ele><time>2025-9-24T4:57:44Z</time></trkpt>
<trkpt lat="48.898178100586" lon="2.6576540470123"><ele></ele><time>2025-9-24T4:57:47Z</time></trkpt>
<trkpt lat="48.898124694824" lon="2.6577551364899"><ele></ele><time>2025-9-24T4:57:50Z</time></trkpt>
<trkpt lat="48.898078918457" lon="2.65784740448"><ele></ele><time>2025-9-24T4:57:53Z</time></trkpt>
<trkpt lat="48.89803314209" lon="2.65793800354"><ele></ele><time>2025-9-24T4:57:56Z</time></trkpt>
<trkpt lat="48.89799118042" lon="2.65802526474"><ele></ele><time>2025-9-24T4:57:59Z</time></trkpt>
<trkpt lat="48.897941589355" lon="2.6581256389618"><ele></ele><time>2025-9-24T4:58:2Z</time></trkpt>
<trkpt lat="48.897891998291" lon="2.6582207679749"><ele></ele><time>2025-9-24T4:58:5Z</time></trkpt>
<trkpt lat="48.897846221924" lon="2.6583046913147"><ele></ele><time>2025-9-24T4:58:8Z</time></trkpt>
<trkpt lat="48.897792816162" lon="2.6583988666534"><ele></ele><time>2025-9-24T4:58:11Z</time></trkpt>
<trkpt lat="48.897735595703" lon="2.6585052013397"><ele></ele><time>2025-9-24T4:58:14Z</time></trkpt>
<trkpt lat="48.897682189941" lon="2.6586034297943"><ele></ele><time>2025-9-24T4:58:17Z</time></trkpt>
<trkpt lat="48.897636413574" lon="2.6586978435516"><ele></ele><time>2025-9-24T4:58:20Z</time></trkpt>
<trkpt lat="48.897579193115" lon="2.6588077545166"><ele></ele><time>2025-9-24T4:58:23Z</time></trkpt>
<trkpt lat="48.897529602051" lon="2.6589043140411"><ele></ele><time>2025-9-24T4:58:26Z</time></trkpt>
<trkpt lat="48.897476196289" lon="2.658992767334"><ele></ele><time>2025-9-24T4:58:29Z</time></trkpt>
<trkpt lat="48.897415161133" lon="2.6590538024902"><ele></ele><time>2025-9-24T4:58:32Z</time></trkpt>
<trkpt lat="48.897319793701" lon="2.6591103076935"><ele></ele><time>2025-9-24T4:58:35Z</time></trkpt>
<trkpt lat="48.89725112915" lon="2.6591145992279"><ele></ele><time>2025-9-24T4:58:38Z</time></trkpt>
<trkpt lat="48.8971824646" lon="2.6590974330902"><ele></ele><time>2025-9-24T4:58:41Z</time></trkpt>
<trkpt lat="48.897109985352" lon="2.659074306488"><ele></ele><time>2025-9-24T4:58:44Z</time></trkpt>
<trkpt lat="48.897037506104" lon="2.6590595245361"><ele></ele><time>2025-9-24T4:58:47Z</time></trkpt>
<trkpt lat="48.896976470947" lon="2.6590440273285"><ele></ele><time>2025-9-24T4:58:50Z</time></trkpt>
<trkpt lat="48.896903991699" lon="2.6590344905853"><ele></ele><time>2025-9-24T4:58:53Z</time></trkpt>
<trkpt lat="48.896820068359" lon="2.6590399742126"><ele></ele><time>2025-9-24T4:58:56Z</time></trkpt>
<trkpt lat="48.89673614502" lon="2.6590619087219"><ele></ele><time>2025-9-24T4:58:59Z</time></trkpt>
<trkpt lat="48.89665222168" lon="2.659120798111"><ele></ele><time>2025-9-24T4:59:2Z</time></trkpt>
<trkpt lat="48.896572113037" lon="2.6591999530792"><ele></ele><time>2025-9-24T4:59:5Z</time></trkpt>
<trkpt lat="48.896492004395" lon="2.6592936515808"><ele></ele><time>2025-9-24T4:59:8Z</time></trkpt>
<trkpt lat="48.896450042725" lon="2.6593658924103"><ele></ele><time>2025-9-24T4:59:11Z</time></trkpt>
<trkpt lat="48.896404266357" lon="2.6594517230988"><ele></ele><time>2025-9-24T4:59:14Z</time></trkpt>
<trkpt lat="48.896350860596" lon="2.6595466136932"><ele></ele><time>2025-9-24T4:59:17Z</time></trkpt>
<trkpt lat="48.896297454834" lon="2.6596386432648"><ele></ele><time>2025-9-24T4:59:20Z</time></trkpt>
<trkpt lat="48.89624786377" lon="2.6597199440002"><ele></ele><time>2025-9-24T4:59:23Z</time></trkpt>
<trkpt lat="48.8962059021" lon="2.6597936153412"><ele></ele><time>2025-9-24T4:59:26Z</time></trkpt>
<trkpt lat="48.896167755127" lon="2.659862279892"><ele></ele><time>2025-9-24T4:59:29Z</time></trkpt>
<trkpt lat="48.896114349365" lon="2.6599056720734"><ele></ele><time>2025-9-24T4:59:32Z</time></trkpt>
<trkpt lat="48.896045684814" lon="2.6599552631378"><ele></ele><time>2025-9-24T4:59:35Z</time></trkpt>
<trkpt lat="48.895961761475" lon="2.6599912643433"><ele></ele><time>2025-9-24T4:59:38Z</time></trkpt>
<trkpt lat="48.895885467529" lon="2.6600108146667"><ele></ele><time>2025-9-24T4:59:41Z</time></trkpt>
<trkpt lat="48.895797729492" lon="2.6600248813629"><ele></ele><time>2025-9-24T4:59:44Z</time></trkpt>
<trkpt lat="48.895702362061" lon="2.6600234508514"><ele></ele><time>2025-9-24T4:59:47Z</time></trkpt>
<trkpt lat="48.895622253418" lon="2.6600081920624"><ele></ele><time>2025-9-24T4:59:50Z</time></trkpt>
<trkpt lat="48.895530700684" lon="2.6599946022034"><ele></ele><time>2025-9-24T4:59:53Z</time></trkpt>
<trkpt lat="48.895435333252" lon="2.659975528717"><ele></ele><time>2025-9-24T4:59:56Z</time></trkpt>
<trkpt lat="48.895355224609" lon="2.6599657535553"><ele></ele><time>2025-9-24T4:59:59Z</time></trkpt>
<trkpt lat="48.895275115967" lon="2.659955739975"><ele></ele><time>2025-9-24T5:0:2Z</time></trkpt>
<trkpt lat="48.895179748535" lon="2.6599469184875"><ele></ele><time>2025-9-24T5:0:5Z</time></trkpt>
<trkpt lat="48.895088195801" lon="2.6599402427673"><ele></ele><time>2025-9-24T5:0:8Z</time></trkpt>
<trkpt lat="48.894992828369" lon="2.6599273681641"><ele></ele><time>2025-9-24T5:0:11Z</time></trkpt>
<trkpt lat="48.894878387451" lon="2.6599214076996"><ele></ele><time>2025-9-24T5:0:14Z</time></trkpt>
<trkpt lat="48.894760131836" lon="2.6599147319794"><ele></ele><time>2025-9-24T5:0:17Z</time></trkpt>
<trkpt lat="48.894645690918" lon="2.6599130630493"><ele></ele><time>2025-9-24T5:0:20Z</time></trkpt>
<trkpt lat="48.894538879395" lon="2.6599113941193"><ele></ele><time>2025-9-24T5:0:23Z</time></trkpt>
<trkpt lat="48.894424438477" lon="2.6599073410034"><ele></ele><time>2025-9-24T5:0:26Z</time></trkpt>
<trkpt lat="48.894332885742" lon="2.6599085330963"><ele></ele><time>2025-9-24T5:0:29Z</time></trkpt>
<trkpt lat="48.894241333008" lon="2.659898519516"><ele></ele><time>2025-9-24T5:0:32Z</time></trkpt>
<trkpt lat="48.894134521484" lon="2.6598827838898"><ele></ele><time>2025-9-24T5:0:35Z</time></trkpt>
<trkpt lat="48.894027709961" lon="2.659871339798"><ele></ele><time>2025-9-24T5:0:38Z</time></trkpt>
<trkpt lat="48.893913269043" lon="2.6598608493805"><ele></ele><time>2025-9-24T5:0:41Z</time></trkpt>
<trkpt lat="48.893810272217" lon="2.6598505973816"><ele></ele><time>2025-9-24T5:0:44Z</time></trkpt>
<trkpt lat="48.893714904785" lon="2.6598446369171"><ele></ele><time>2025-9-24T5:0:47Z</time></trkpt>
<trkpt lat="48.893604278564" lon="2.6598427295685"><ele></ele><time>2025-9-24T5:0:50Z</time></trkpt>
<trkpt lat="48.893501281738" lon="2.6598377227783"><ele></ele><time>2025-9-24T5:0:53Z</time></trkpt>
<trkpt lat="48.893402099609" lon="2.6598289012909"><ele></ele><time>2025-9-24T5:0:56Z</time></trkpt>
<trkpt lat="48.893291473389" lon="2.6598241329193"><ele></ele><time>2025-9-24T5:0:59Z</time></trkpt>
<trkpt lat="48.893165588379" lon="2.6598215103149"><ele></ele><time>2025-9-24T5:1:2Z</time></trkpt>
<trkpt lat="48.893054962158" lon="2.6598174571991"><ele></ele><time>2025-9-24T5:1:5Z</time></trkpt>
<trkpt lat="48.892944335938" lon="2.6598126888275"><ele></ele><time>2025-9-24T5:1:8Z</time></trkpt>
<trkpt lat="48.892837524414" lon="2.65980219841"><ele></ele><time>2025-9-24T5:1:11Z</time></trkpt>
<trkpt lat="48.892730712891" lon="2.6597876548767"><ele></ele><time>2025-9-24T5:1:14Z</time></trkpt>
<trkpt lat="48.892623901367" lon="2.6597697734833"><ele></ele><time>2025-9-24T5:1:17Z</time></trkpt>
<trkpt lat="48.892509460449" lon="2.6597487926483"><ele></ele><time>2025-9-24T5:1:20Z</time></trkpt>
<trkpt lat="48.89241027832" lon="2.6597256660461"><ele></ele><time>2025-9-24T5:1:23Z</time></trkpt>
<trkpt lat="48.892314910889" lon="2.6597054004669"><ele></ele><time>2025-9-24T5:1:26Z</time></trkpt>
<trkpt lat="48.892211914062" lon="2.6596872806549"><ele></ele><time>2025-9-24T5:1:29Z</time></trkpt>
<trkpt lat="48.892108917236" lon="2.6596682071686"><ele></ele><time>2025-9-24T5:1:32Z</time></trkpt>
<trkpt lat="48.89200592041" lon="2.6596510410309"><ele></ele><time>2025-9-24T5:1:35Z</time></trkpt>
<trkpt lat="48.891899108887" lon="2.6596326828003"><ele></ele><time>2025-9-24T5:1:38Z</time></trkpt>
<trkpt lat="48.891807556152" lon="2.6596105098724"><ele></ele><time>2025-9-24T5:1:41Z</time></trkpt>
<trkpt lat="48.891719818115" lon="2.6595911979675"><ele></ele><time>2025-9-24T5:1:44Z</time></trkpt>
<trkpt lat="48.891620635986" lon="2.6595690250397"><ele></ele><time>2025-9-24T5:1:47Z</time></trkpt>
<trkpt lat="48.891525268555" lon="2.6595442295074"><ele></ele><time>2025-9-24T5:1:50Z</time></trkpt>
<trkpt lat="48.89143371582" lon="2.6595165729523"><ele></ele><time>2025-9-24T5:1:53Z</time></trkpt>
<trkpt lat="48.89134979248" lon="2.6594843864441"><ele></ele><time>2025-9-24T5:1:56Z</time></trkpt>
<trkpt lat="48.891262054443" lon="2.6594626903534"><ele></ele><time>2025-9-24T5:1:59Z</time></trkpt>
<trkpt lat="48.891174316406" lon="2.65944647789"><ele></ele><time>2025-9-24T5:2:2Z</time></trkpt>
<trkpt lat="48.891090393066" lon="2.6594305038452"><ele></ele><time>2025-9-24T5:2:5Z</time></trkpt>
<trkpt lat="48.891006469727" lon="2.6594159603119"><ele></ele><time>2025-9-24T5:2:8Z</time></trkpt>
<trkpt lat="48.890933990479" lon="2.6593990325928"><ele></ele><time>2025-9-24T5:2:11Z</time></trkpt>
<trkpt lat="48.890857696533" lon="2.6593806743622"><ele></ele><time>2025-9-24T5:2:14Z</time></trkpt>
<trkpt lat="48.890777587891" lon="2.6593606472015"><ele></ele><time>2025-9-24T5:2:17Z</time></trkpt>
<trkpt lat="48.890693664551" lon="2.6593418121338"><ele></ele><time>2025-9-24T5:2:20Z</time></trkpt>
<trkpt lat="48.890609741211" lon="2.6593263149261"><ele></ele><time>2025-9-24T5:2:23Z</time></trkpt>
<trkpt lat="48.890533447266" lon="2.65931224823"><ele></ele><time>2025-9-24T5:2:26Z</time></trkpt>
<trkpt lat="48.890449523926" lon="2.6592955589294"><ele></ele><time>2025-9-24T5:2:29Z</time></trkpt>
<trkpt lat="48.89037322998" lon="2.6592748165131"><ele></ele><time>2025-9-24T5:2:32Z</time></trkpt>
<trkpt lat="48.890300750732" lon="2.659256696701"><ele></ele><time>2025-9-24T5:2:35Z</time></trkpt>
<trkpt lat="48.890224456787" lon="2.6592361927032"><ele></ele><time>2025-9-24T5:2:38Z</time></trkpt>
<trkpt lat="48.890144348145" lon="2.6592268943787"><ele></ele><time>2025-9-24T5:2:41Z</time></trkpt>
<trkpt lat="48.890064239502" lon="2.6592466831207"><ele></ele><time>2025-9-24T5:2:44Z</time></trkpt>
<trkpt lat="48.889987945557" lon="2.6592996120453"><ele></ele><time>2025-9-24T5:2:47Z</time></trkpt>
<trkpt lat="48.88990020752" lon="2.6593763828278"><ele></ele><time>2025-9-24T5:2:50Z</time></trkpt>
<trkpt lat="48.889812469482" lon="2.659458398819"><ele></ele><time>2025-9-24T5:2:53Z</time></trkpt>
<trkpt lat="48.889743804932" lon="2.6595258712769"><ele></ele><time>2025-9-24T5:2:56Z</time></trkpt>
<trkpt lat="48.889656066895" lon="2.6596164703369"><ele></ele><time>2025-9-24T5:2:59Z</time></trkpt>
<trkpt lat="48.889583587646" lon="2.6596896648407"><ele></ele><time>2025-9-24T5:3:2Z</time></trkpt>
<trkpt lat="48.889499664307" lon="2.6597788333893"><ele></ele><time>2025-9-24T5:3:5Z</time></trkpt>
<trkpt lat="48.889430999756" lon="2.6598560810089"><ele></ele><time>2025-9-24T5:3:8Z</time></trkpt>
<trkpt lat="48.889373779297" lon="2.6599192619324"><ele></ele><time>2025-9-24T5:3:11Z</time></trkpt>
<trkpt lat="48.889312744141" lon="2.6599788665771"><ele></ele><time>2025-9-24T5:3:14Z</time></trkpt>
<trkpt lat="48.889232635498" lon="2.6600613594055"><ele></ele><time>2025-9-24T5:3:17Z</time></trkpt>
<trkpt lat="48.889156341553" lon="2.6601428985596"><ele></ele><time>2025-9-24T5:3:20Z</time></trkpt>
<trkpt lat="48.889087677002" lon="2.6602115631104"><ele></ele><time>2025-9-24T5:3:23Z</time></trkpt>
<trkpt lat="48.889007568359" lon="2.6602907180786"><ele></ele><time>2025-9-24T5:3:26Z</time></trkpt>
<trkpt lat="48.888931274414" lon="2.6603713035583"><ele></ele><time>2025-9-24T5:3:29Z</time></trkpt>
<trkpt lat="48.888851165771" lon="2.6604459285736"><ele></ele><time>2025-9-24T5:3:32Z</time></trkpt>
<trkpt lat="48.888774871826" lon="2.6605179309845"><ele></ele><time>2025-9-24T5:3:35Z</time></trkpt>
<trkpt lat="48.888687133789" lon="2.6605944633484"><ele></ele><time>2025-9-24T5:3:38Z</time></trkpt>
<trkpt lat="48.888591766357" lon="2.6606743335724"><ele></ele><time>2025-9-24T5:3:41Z</time></trkpt>
<trkpt lat="48.888492584229" lon="2.6607484817505"><ele></ele><time>2025-9-24T5:3:44Z</time></trkpt>
<trkpt lat="48.8883934021" lon="2.66082239151"><ele></ele><time>2025-9-24T5:3:47Z</time></trkpt>
<trkpt lat="48.888317108154" lon="2.6608831882477"><ele></ele><time>2025-9-24T5:3:50Z</time></trkpt>
<trkpt lat="48.888317108154" lon="2.6608831882477"><ele></ele><time>2025-9-24T5:3:53Z</time></trkpt>
<trkpt lat="48.888233184814" lon="2.6609988212585"><ele></ele><time>2025-9-24T5:3:56Z</time></trkpt>
<trkpt lat="48.888160705566" lon="2.6610848903656"><ele></ele><time>2025-9-24T5:3:59Z</time></trkpt>
<trkpt lat="48.888065338135" lon="2.6611795425415"><ele></ele><time>2025-9-24T5:4:2Z</time></trkpt>
<trkpt lat="48.887969970703" lon="2.661260843277"><ele></ele><time>2025-9-24T5:4:5Z</time></trkpt>
<trkpt lat="48.887889862061" lon="2.6613385677338"><ele></ele><time>2025-9-24T5:4:8Z</time></trkpt>
<trkpt lat="48.887809753418" lon="2.6614181995392"><ele></ele><time>2025-9-24T5:4:11Z</time></trkpt>
<trkpt lat="48.887725830078" lon="2.6615006923676"><ele></ele><time>2025-9-24T5:4:14Z</time></trkpt>
<trkpt lat="48.887634277344" lon="2.6615786552429"><ele></ele><time>2025-9-24T5:4:17Z</time></trkpt>
<trkpt lat="48.887512207031" lon="2.6616752147675"><ele></ele><time>2025-9-24T5:4:20Z</time></trkpt>
<trkpt lat="48.887397766113" lon="2.6617591381073"><ele></ele><time>2025-9-24T5:4:23Z</time></trkpt>
<trkpt lat="48.887302398682" lon="2.6618344783783"><ele></ele><time>2025-9-24T5:4:26Z</time></trkpt>
<trkpt lat="48.887218475342" lon="2.661922454834"><ele></ele><time>2025-9-24T5:4:29Z</time></trkpt>
<trkpt lat="48.887134552002" lon="2.6620092391968"><ele></ele><time>2025-9-24T5:4:32Z</time></trkpt>
<trkpt lat="48.887031555176" lon="2.6621117591858"><ele></ele><time>2025-9-24T5:4:35Z</time></trkpt>
<trkpt lat="48.886932373047" lon="2.6622087955475"><ele></ele><time>2025-9-24T5:4:38Z</time></trkpt>
<trkpt lat="48.88684463501" lon="2.6622996330261"><ele></ele><time>2025-9-24T5:4:41Z</time></trkpt>
<trkpt lat="48.886734008789" lon="2.6623952388763"><ele></ele><time>2025-9-24T5:4:44Z</time></trkpt>
<trkpt lat="48.886631011963" lon="2.6624891757965"><ele></ele><time>2025-9-24T5:4:47Z</time></trkpt>
<trkpt lat="48.886531829834" lon="2.6625778675079"><ele></ele><time>2025-9-24T5:4:50Z</time></trkpt>
<trkpt lat="48.8864402771" lon="2.6626603603363"><ele></ele><time>2025-9-24T5:4:53Z</time></trkpt>
<trkpt lat="48.886333465576" lon="2.6627254486084"><ele></ele><time>2025-9-24T5:4:56Z</time></trkpt>
<trkpt lat="48.886219024658" lon="2.6627361774445"><ele></ele><time>2025-9-24T5:4:59Z</time></trkpt>
<trkpt lat="48.886119842529" lon="2.6627206802368"><ele></ele><time>2025-9-24T5:5:2Z</time></trkpt>
<trkpt lat="48.886001586914" lon="2.6627032756805"><ele></ele><time>2025-9-24T5:5:5Z</time></trkpt>
<trkpt lat="48.885879516602" lon="2.6626832485199"><ele></ele><time>2025-9-24T5:5:8Z</time></trkpt>
<trkpt lat="48.885761260986" lon="2.6626677513123"><ele></ele><time>2025-9-24T5:5:11Z</time></trkpt>
<trkpt lat="48.885654449463" lon="2.6626386642456"><ele></ele><time>2025-9-24T5:5:14Z</time></trkpt>
<trkpt lat="48.885551452637" lon="2.6626150608063"><ele></ele><time>2025-9-24T5:5:17Z</time></trkpt>
<trkpt lat="48.885444641113" lon="2.6625912189484"><ele></ele><time>2025-9-24T5:5:20Z</time></trkpt>
<trkpt lat="48.88533782959" lon="2.6625719070435"><ele></ele><time>2025-9-24T5:5:23Z</time></trkpt>
<trkpt lat="48.885231018066" lon="2.6625571250916"><ele></ele><time>2025-9-24T5:5:26Z</time></trkpt>
<trkpt lat="48.88512802124" lon="2.6625373363495"><ele></ele><time>2025-9-24T5:5:29Z</time></trkpt>
<trkpt lat="48.88501739502" lon="2.6625199317932"><ele></ele><time>2025-9-24T5:5:32Z</time></trkpt>
<trkpt lat="48.884902954102" lon="2.6624965667725"><ele></ele><time>2025-9-24T5:5:35Z</time></trkpt>
<trkpt lat="48.884803771973" lon="2.6624743938446"><ele></ele><time>2025-9-24T5:5:38Z</time></trkpt>
<trkpt lat="48.884704589844" lon="2.6624569892883"><ele></ele><time>2025-9-24T5:5:41Z</time></trkpt>
<trkpt lat="48.884601593018" lon="2.6624460220337"><ele></ele><time>2025-9-24T5:5:44Z</time></trkpt>
<trkpt lat="48.884510040283" lon="2.6624290943146"><ele></ele><time>2025-9-24T5:5:47Z</time></trkpt>
<trkpt lat="48.884429931641" lon="2.6624112129211"><ele></ele><time>2025-9-24T5:5:50Z</time></trkpt>
<trkpt lat="48.884368896484" lon="2.6623797416687"><ele></ele><time>2025-9-24T5:5:53Z</time></trkpt>
<trkpt lat="48.88431930542" lon="2.6623253822327"><ele></ele><time>2025-9-24T5:5:56Z</time></trkpt>
<trkpt lat="48.884250640869" lon="2.6623034477234"><ele></ele><time>2025-9-24T5:5:59Z</time></trkpt>
<trkpt lat="48.884185791016" lon="2.6623096466064"><ele></ele><time>2025-9-24T5:6:2Z</time></trkpt>
<trkpt lat="48.884113311768" lon="2.6622931957245"><ele></ele><time>2025-9-24T5:6:5Z</time></trkpt>
<trkpt lat="48.884033203125" lon="2.6622676849365"><ele></ele><time>2025-9-24T5:6:8Z</time></trkpt>
<trkpt lat="48.883949279785" lon="2.6622421741486"><ele></ele><time>2025-9-24T5:6:11Z</time></trkpt>
<trkpt lat="48.883853912354" lon="2.6622142791748"><ele></ele><time>2025-9-24T5:6:14Z</time></trkpt>
<trkpt lat="48.883754730225" lon="2.662193775177"><ele></ele><time>2025-9-24T5:6:17Z</time></trkpt>
<trkpt lat="48.88366317749" lon="2.662181854248"><ele></ele><time>2025-9-24T5:6:20Z</time></trkpt>
<trkpt lat="48.883563995361" lon="2.6621615886688"><ele></ele><time>2025-9-24T5:6:23Z</time></trkpt>
<trkpt lat="48.883464813232" lon="2.6621437072754"><ele></ele><time>2025-9-24T5:6:26Z</time></trkpt>
<trkpt lat="48.883361816406" lon="2.6621222496033"><ele></ele><time>2025-9-24T5:6:29Z</time></trkpt>
<trkpt lat="48.883255004883" lon="2.6621038913727"><ele></ele><time>2025-9-24T5:6:32Z</time></trkpt>
<trkpt lat="48.883152008057" lon="2.6620903015137"><ele></ele><time>2025-9-24T5:6:35Z</time></trkpt>
<trkpt lat="48.883041381836" lon="2.6620752811432"><ele></ele><time>2025-9-24T5:6:38Z</time></trkpt>
<trkpt lat="48.882934570312" lon="2.6620626449585"><ele></ele><time>2025-9-24T5:6:41Z</time></trkpt>
<trkpt lat="48.882823944092" lon="2.6620478630066"><ele></ele><time>2025-9-24T5:6:44Z</time></trkpt>
<trkpt lat="48.882717132568" lon="2.6620309352875"><ele></ele><time>2025-9-24T5:6:47Z</time></trkpt>
<trkpt lat="48.882606506348" lon="2.6620182991028"><ele></ele><time>2025-9-24T5:6:50Z</time></trkpt>
<trkpt lat="48.882503509521" lon="2.6620118618011"><ele></ele><time>2025-9-24T5:6:53Z</time></trkpt>
<trkpt lat="48.882392883301" lon="2.6620073318481"><ele></ele><time>2025-9-24T5:6:56Z</time></trkpt>
<trkpt lat="48.88228225708" lon="2.6619954109192"><ele></ele><time>2025-9-24T5:6:59Z</time></trkpt>
<trkpt lat="48.882175445557" lon="2.6619746685028"><ele></ele><time>2025-9-24T5:7:2Z</time></trkpt>
<trkpt lat="48.88207244873" lon="2.6619443893433"><ele></ele><time>2025-9-24T5:7:5Z</time></trkpt>
<trkpt lat="48.881977081299" lon="2.6619021892548"><ele></ele><time>2025-9-24T5:7:8Z</time></trkpt>
<trkpt lat="48.881889343262" lon="2.6618366241455"><ele></ele><time>2025-9-24T5:7:11Z</time></trkpt>
<trkpt lat="48.881813049316" lon="2.6617681980133"><ele></ele><time>2025-9-24T5:7:14Z</time></trkpt>
<trkpt lat="48.88175201416" lon="2.6617107391357"><ele></ele><time>2025-9-24T5:7:17Z</time></trkpt>
<trkpt lat="48.881687164307" lon="2.6616425514221"><ele></ele><time>2025-9-24T5:7:20Z</time></trkpt>
<trkpt lat="48.881614685059" lon="2.6615438461304"><ele></ele><time>2025-9-24T5:7:23Z</time></trkpt>
<trkpt lat="48.881587982178" lon="2.6614370346069"><ele></ele><time>2025-9-24T5:7:26Z</time></trkpt>
<trkpt lat="48.881587982178" lon="2.6614370346069"><ele></ele><time>2025-9-24T5:7:29Z</time></trkpt>
<trkpt lat="48.881641387939" lon="2.6613166332245"><ele></ele><time>2025-9-24T5:7:32Z</time></trkpt>
<trkpt lat="48.881629943848" lon="2.661230802536"><ele></ele><time>2025-9-24T5:7:35Z</time></trkpt>
<trkpt lat="48.881595611572" lon="2.6611564159393"><ele></ele><time>2025-9-24T5:7:38Z</time></trkpt>
<trkpt lat="48.881549835205" lon="2.6610679626465"><ele></ele><time>2025-9-24T5:7:41Z</time></trkpt>
<trkpt lat="48.88151550293" lon="2.6609859466553"><ele></ele><time>2025-9-24T5:7:44Z</time></trkpt>
<trkpt lat="48.88151550293" lon="2.6609859466553"><ele></ele><time>2025-9-24T5:7:47Z</time></trkpt>
<trkpt lat="48.88151550293" lon="2.6609859466553"><ele></ele><time>2025-9-24T5:7:50Z</time></trkpt>
<trkpt lat="48.881454467773" lon="2.6609432697296"><ele></ele><time>2025-9-24T5:7:53Z</time></trkpt>
<trkpt lat="48.881454467773" lon="2.6609432697296"><ele></ele><time>2025-9-24T5:7:56Z</time></trkpt>
<trkpt lat="48.881454467773" lon="2.6609432697296"><ele></ele><time>2025-9-24T5:7:59Z</time></trkpt>
<trkpt lat="48.881454467773" lon="2.6609432697296"><ele></ele><time>2025-9-24T5:8:2Z</time></trkpt>
<trkpt lat="48.881294250488" lon="2.6609447002411"><ele></ele><time>2025-9-24T5:8:5Z</time></trkpt>
<trkpt lat="48.881298065186" lon="2.6607785224915"><ele></ele><time>2025-9-24T5:8:8Z</time></trkpt>
<trkpt lat="48.881248474121" lon="2.6606364250183"><ele></ele><time>2025-9-24T5:8:11Z</time></trkpt>
<trkpt lat="48.881195068359" lon="2.6605594158173"><ele></ele><time>2025-9-24T5:8:14Z</time></trkpt>
<trkpt lat="48.881153106689" lon="2.6604862213135"><ele></ele><time>2025-9-24T5:8:17Z</time></trkpt>
<trkpt lat="48.88111114502" lon="2.6604135036469"><ele></ele><time>2025-9-24T5:8:20Z</time></trkpt>
<trkpt lat="48.881061553955" lon="2.6603362560272"><ele></ele><time>2025-9-24T5:8:23Z</time></trkpt>
<trkpt lat="48.881019592285" lon="2.6602644920349"><ele></ele><time>2025-9-24T5:8:26Z</time></trkpt>
<trkpt lat="48.880977630615" lon="2.6601996421814"><ele></ele><time>2025-9-24T5:8:29Z</time></trkpt>
<trkpt lat="48.880931854248" lon="2.6601345539093"><ele></ele><time>2025-9-24T5:8:32Z</time></trkpt>
<trkpt lat="48.880886077881" lon="2.6600654125214"><ele></ele><time>2025-9-24T5:8:35Z</time></trkpt>
<trkpt lat="48.880798339844" lon="2.6599550247192"><ele></ele><time>2025-9-24T5:8:38Z</time></trkpt>
<trkpt lat="48.88069152832" lon="2.6598348617554"><ele></ele><time>2025-9-24T5:8:41Z</time></trkpt>
<trkpt lat="48.880630493164" lon="2.6597633361816"><ele></ele><time>2025-9-24T5:8:44Z</time></trkpt>
<trkpt lat="48.880577087402" lon="2.6596987247467"><ele></ele><time>2025-9-24T5:8:47Z</time></trkpt>
<trkpt lat="48.880516052246" lon="2.6596364974976"><ele></ele><time>2025-9-24T5:8:50Z</time></trkpt>
<trkpt lat="48.880462646484" lon="2.6595814228058"><ele></ele><time>2025-9-24T5:8:53Z</time></trkpt>
<trkpt lat="48.880405426025" lon="2.6595277786255"><ele></ele><time>2025-9-24T5:8:56Z</time></trkpt>
<trkpt lat="48.880321502686" lon="2.6594383716583"><ele></ele><time>2025-9-24T5:8:59Z</time></trkpt>
<trkpt lat="48.880321502686" lon="2.6594383716583"><ele></ele><time>2025-9-24T5:9:2Z</time></trkpt>
<trkpt lat="48.880226135254" lon="2.6593580245972"><ele></ele><time>2025-9-24T5:9:5Z</time></trkpt>
<trkpt lat="48.880165100098" lon="2.6593170166016"><ele></ele><time>2025-9-24T5:9:8Z</time></trkpt>
<trkpt lat="48.880107879639" lon="2.6592833995819"><ele></ele><time>2025-9-24T5:9:11Z</time></trkpt>
<trkpt lat="48.88005065918" lon="2.6592514514923"><ele></ele><time>2025-9-24T5:9:14Z</time></trkpt>
<trkpt lat="48.879997253418" lon="2.6592161655426"><ele></ele><time>2025-9-24T5:9:17Z</time></trkpt>
<trkpt lat="48.879947662354" lon="2.6591744422913"><ele></ele><time>2025-9-24T5:9:20Z</time></trkpt>
<trkpt lat="48.879947662354" lon="2.6591744422913"><ele></ele><time>2025-9-24T5:9:23Z</time></trkpt>
<trkpt lat="48.879852294922" lon="2.6591196060181"><ele></ele><time>2025-9-24T5:9:26Z</time></trkpt>
<trkpt lat="48.87979888916" lon="2.6590864658356"><ele></ele><time>2025-9-24T5:9:29Z</time></trkpt>
<trkpt lat="48.87979888916" lon="2.6590864658356"><ele></ele><time>2025-9-24T5:9:32Z</time></trkpt>
<trkpt lat="48.879692077637" lon="2.6590502262115"><ele></ele><time>2025-9-24T5:9:35Z</time></trkpt>
<trkpt lat="48.87963104248" lon="2.6590356826782"><ele></ele><time>2025-9-24T5:9:38Z</time></trkpt>
<trkpt lat="48.879566192627" lon="2.6590292453766"><ele></ele><time>2025-9-24T5:9:41Z</time></trkpt>
<trkpt lat="48.879566192627" lon="2.6590292453766"><ele></ele><time>2025-9-24T5:9:44Z</time></trkpt>
<trkpt lat="48.879451751709" lon="2.6590156555176"><ele></ele><time>2025-9-24T5:9:47Z</time></trkpt>
<trkpt lat="48.879322052002" lon="2.658992767334"><ele></ele><time>2025-9-24T5:9:50Z</time></trkpt>
<trkpt lat="48.879249572754" lon="2.6589839458466"><ele></ele><time>2025-9-24T5:9:53Z</time></trkpt>
<trkpt lat="48.879188537598" lon="2.6589727401733"><ele></ele><time>2025-9-24T5:9:56Z</time></trkpt>
<trkpt lat="48.879188537598" lon="2.6589727401733"><ele></ele><time>2025-9-24T5:9:59Z</time></trkpt>
<trkpt lat="48.879104614258" lon="2.6589004993439"><ele></ele><time>2025-9-24T5:10:2Z</time></trkpt>
<trkpt lat="48.879104614258" lon="2.6589004993439"><ele></ele><time>2025-9-24T5:10:5Z</time></trkpt>
<trkpt lat="48.879070281982" lon="2.6587541103363"><ele></ele><time>2025-9-24T5:10:8Z</time></trkpt>
<trkpt lat="48.879047393799" lon="2.6586492061615"><ele></ele><time>2025-9-24T5:10:11Z</time></trkpt>
<trkpt lat="48.879028320312" lon="2.658563375473"><ele></ele><time>2025-9-24T5:10:14Z</time></trkpt>
<trkpt lat="48.879016876221" lon="2.6584053039551"><ele></ele><time>2025-9-24T5:10:17Z</time></trkpt>
<trkpt lat="48.879013061523" lon="2.6582996845245"><ele></ele><time>2025-9-24T5:10:20Z</time></trkpt>
<trkpt lat="48.879009246826" lon="2.6582074165344"><ele></ele><time>2025-9-24T5:10:23Z</time></trkpt>
<trkpt lat="48.879005432129" lon="2.6581132411957"><ele></ele><time>2025-9-24T5:10:26Z</time></trkpt>
<trkpt lat="48.87899017334" lon="2.6580257415771"><ele></ele><time>2025-9-24T5:10:29Z</time></trkpt>
<trkpt lat="48.878963470459" lon="2.6579065322876"><ele></ele><time>2025-9-24T5:10:32Z</time></trkpt>
<trkpt lat="48.878963470459" lon="2.6579065322876"><ele></ele><time>2025-9-24T5:10:35Z</time></trkpt>
<trkpt lat="48.878986358643" lon="2.6578543186188"><ele></ele><time>2025-9-24T5:10:38Z</time></trkpt>
<trkpt lat="48.879016876221" lon="2.6578023433685"><ele></ele><time>2025-9-24T5:10:41Z</time></trkpt>
<trkpt lat="48.879028320312" lon="2.6577248573303"><ele></ele><time>2025-9-24T5:10:44Z</time></trkpt>
<trkpt lat="48.879035949707" lon="2.6576325893402"><ele></ele><time>2025-9-24T5:10:47Z</time></trkpt>
<trkpt lat="48.87903213501" lon="2.6575317382812"><ele></ele><time>2025-9-24T5:10:50Z</time></trkpt>
<trkpt lat="48.878997802734" lon="2.6573338508606"><ele></ele><time>2025-9-24T5:10:53Z</time></trkpt>
<trkpt lat="48.878932952881" lon="2.657199382782"><ele></ele><time>2025-9-24T5:10:56Z</time></trkpt>
<trkpt lat="48.878902435303" lon="2.6571156978607"><ele></ele><time>2025-9-24T5:10:59Z</time></trkpt>
<trkpt lat="48.878875732422" lon="2.6570334434509"><ele></ele><time>2025-9-24T5:11:2Z</time></trkpt>
<trkpt lat="48.878875732422" lon="2.6570334434509"><ele></ele><time>2025-9-24T5:11:5Z</time></trkpt>
<trkpt lat="48.878826141357" lon="2.6568932533264"><ele></ele><time>2025-9-24T5:11:8Z</time></trkpt>
<trkpt lat="48.878826141357" lon="2.6568932533264"><ele></ele><time>2025-9-24T5:11:11Z</time></trkpt>
<trkpt lat="48.878826141357" lon="2.6567857265472"><ele></ele><time>2025-9-24T5:11:14Z</time></trkpt>
<trkpt lat="48.878826141357" lon="2.6567857265472"><ele></ele><time>2025-9-24T5:11:17Z</time></trkpt>
<trkpt lat="48.878826141357" lon="2.6567857265472"><ele></ele><time>2025-9-24T5:11:20Z</time></trkpt>
<trkpt lat="48.878826141357" lon="2.6567857265472"><ele></ele><time>2025-9-24T5:11:23Z</time></trkpt>
<trkpt lat="48.878776550293" lon="2.6568574905396"><ele></ele><time>2025-9-24T5:11:26Z</time></trkpt>
<trkpt lat="48.878730773926" lon="2.6569409370422"><ele></ele><time>2025-9-24T5:11:29Z</time></trkpt>
<trkpt lat="48.878681182861" lon="2.6570754051208"><ele></ele><time>2025-9-24T5:11:32Z</time></trkpt>
<trkpt lat="48.878635406494" lon="2.6571478843689"><ele></ele><time>2025-9-24T5:11:35Z</time></trkpt>
<trkpt lat="48.878589630127" lon="2.6571977138519"><ele></ele><time>2025-9-24T5:11:38Z</time></trkpt>
<trkpt lat="48.878520965576" lon="2.6571590900421"><ele></ele><time>2025-9-24T5:11:41Z</time></trkpt>
<trkpt lat="48.878520965576" lon="2.6571590900421"><ele></ele><time>2025-9-24T5:11:44Z</time></trkpt>
<trkpt lat="48.878471374512" lon="2.6570627689362"><ele></ele><time>2025-9-24T5:11:47Z</time></trkpt>
<trkpt lat="48.878471374512" lon="2.6570627689362"><ele></ele><time>2025-9-24T5:11:50Z</time></trkpt>
<trkpt lat="48.878379821777" lon="2.6569962501526"><ele></ele><time>2025-9-24T5:11:53Z</time></trkpt>
<trkpt lat="48.878379821777" lon="2.6569962501526"><ele></ele><time>2025-9-24T5:11:56Z</time></trkpt>
<trkpt lat="48.878284454346" lon="2.6570160388947"><ele></ele><time>2025-9-24T5:11:59Z</time></trkpt>
<trkpt lat="48.878223419189" lon="2.6570184230804"><ele></ele><time>2025-9-24T5:12:2Z</time></trkpt>
<trkpt lat="48.878158569336" lon="2.6570177078247"><ele></ele><time>2025-9-24T5:12:5Z</time></trkpt>
<trkpt lat="48.878082275391" lon="2.6571087837219"><ele></ele><time>2025-9-24T5:12:8Z</time></trkpt>
<trkpt lat="48.878082275391" lon="2.6571087837219"><ele></ele><time>2025-9-24T5:12:11Z</time></trkpt>
<trkpt lat="48.877994537354" lon="2.6571764945984"><ele></ele><time>2025-9-24T5:12:14Z</time></trkpt>
<trkpt lat="48.877994537354" lon="2.6571764945984"><ele></ele><time>2025-9-24T5:12:17Z</time></trkpt>
<trkpt lat="48.877902984619" lon="2.6571362018585"><ele></ele><time>2025-9-24T5:12:20Z</time></trkpt>
<trkpt lat="48.877902984619" lon="2.6571362018585"><ele></ele><time>2025-9-24T5:12:23Z</time></trkpt>
<trkpt lat="48.877902984619" lon="2.6571362018585"><ele></ele><time>2025-9-24T5:12:26Z</time></trkpt>
<trkpt lat="48.877902984619" lon="2.6571362018585"><ele></ele><time>2025-9-24T5:12:29Z</time></trkpt>
<trkpt lat="48.878005981445" lon="2.6571292877197"><ele></ele><time>2025-9-24T5:12:32Z</time></trkpt>
<trkpt lat="48.878044128418" lon="2.6570854187012"><ele></ele><time>2025-9-24T5:12:35Z</time></trkpt>
<trkpt lat="48.878078460693" lon="2.6570429801941"><ele></ele><time>2025-9-24T5:12:38Z</time></trkpt>
<trkpt lat="48.878112792969" lon="2.6570036411285"><ele></ele><time>2025-9-24T5:12:41Z</time></trkpt>
<trkpt lat="48.878147125244" lon="2.656973361969"><ele></ele><time>2025-9-24T5:12:44Z</time></trkpt>
<trkpt lat="48.87818145752" lon="2.6569488048553"><ele></ele><time>2025-9-24T5:12:47Z</time></trkpt>
<trkpt lat="48.87825012207" lon="2.6569330692291"><ele></ele><time>2025-9-24T5:12:50Z</time></trkpt>
<trkpt lat="48.878311157227" lon="2.6570620536804"><ele></ele><time>2025-9-24T5:12:53Z</time></trkpt>
<trkpt lat="48.878364562988" lon="2.6571350097656"><ele></ele><time>2025-9-24T5:12:56Z</time></trkpt>
<trkpt lat="48.878364562988" lon="2.6571350097656"><ele></ele><time>2025-9-24T5:12:59Z</time></trkpt>
<trkpt lat="48.878475189209" lon="2.6571412086487"><ele></ele><time>2025-9-24T5:13:2Z</time></trkpt>
<trkpt lat="48.878536224365" lon="2.6571023464203"><ele></ele><time>2025-9-24T5:13:5Z</time></trkpt>
<trkpt lat="48.878589630127" lon="2.657035112381"><ele></ele><time>2025-9-24T5:13:8Z</time></trkpt>
<trkpt lat="48.878635406494" lon="2.6569607257843"><ele></ele><time>2025-9-24T5:13:11Z</time></trkpt>
<trkpt lat="48.878688812256" lon="2.6569094657898"><ele></ele><time>2025-9-24T5:13:14Z</time></trkpt>
<trkpt lat="48.87873840332" lon="2.6568651199341"><ele></ele><time>2025-9-24T5:13:17Z</time></trkpt>
<trkpt lat="48.878761291504" lon="2.6567783355713"><ele></ele><time>2025-9-24T5:13:20Z</time></trkpt>
<trkpt lat="48.878787994385" lon="2.656702041626"><ele></ele><time>2025-9-24T5:13:23Z</time></trkpt>
<trkpt lat="48.878833770752" lon="2.6565895080566"><ele></ele><time>2025-9-24T5:13:26Z</time></trkpt>
<trkpt lat="48.878860473633" lon="2.6565148830414"><ele></ele><time>2025-9-24T5:13:29Z</time></trkpt>
<trkpt lat="48.878890991211" lon="2.6564400196075"><ele></ele><time>2025-9-24T5:13:32Z</time></trkpt>
<trkpt lat="48.878921508789" lon="2.6563618183136"><ele></ele><time>2025-9-24T5:13:35Z</time></trkpt>
<trkpt lat="48.878932952881" lon="2.6562662124634"><ele></ele><time>2025-9-24T5:13:38Z</time></trkpt>
<trkpt lat="48.878940582275" lon="2.6561050415039"><ele></ele><time>2025-9-24T5:13:41Z</time></trkpt>
<trkpt lat="48.878959655762" lon="2.6559889316559"><ele></ele><time>2025-9-24T5:13:44Z</time></trkpt>
<trkpt lat="48.879001617432" lon="2.6559319496155"><ele></ele><time>2025-9-24T5:13:47Z</time></trkpt>
<trkpt lat="48.87907409668" lon="2.6558368206024"><ele></ele><time>2025-9-24T5:13:50Z</time></trkpt>
<trkpt lat="48.879154205322" lon="2.6557383537292"><ele></ele><time>2025-9-24T5:13:53Z</time></trkpt>
<trkpt lat="48.879211425781" lon="2.6556866168976"><ele></ele><time>2025-9-24T5:13:56Z</time></trkpt>
<trkpt lat="48.879272460938" lon="2.6556272506714"><ele></ele><time>2025-9-24T5:13:59Z</time></trkpt>
<trkpt lat="48.879318237305" lon="2.6555542945862"><ele></ele><time>2025-9-24T5:14:2Z</time></trkpt>
<trkpt lat="48.879390716553" lon="2.6554434299469"><ele></ele><time>2025-9-24T5:14:5Z</time></trkpt>
<trkpt lat="48.879432678223" lon="2.6553795337677"><ele></ele><time>2025-9-24T5:14:8Z</time></trkpt>
<trkpt lat="48.879470825195" lon="2.6553120613098"><ele></ele><time>2025-9-24T5:14:11Z</time></trkpt>
<trkpt lat="48.879470825195" lon="2.6553120613098"><ele></ele><time>2025-9-24T5:14:14Z</time></trkpt>
<trkpt lat="48.879547119141" lon="2.6551904678345"><ele></ele><time>2025-9-24T5:14:17Z</time></trkpt>
<trkpt lat="48.879547119141" lon="2.6551904678345"><ele></ele><time>2025-9-24T5:14:20Z</time></trkpt>
<trkpt lat="48.879524230957" lon="2.6550786495209"><ele></ele><time>2025-9-24T5:14:23Z</time></trkpt>
<trkpt lat="48.879474639893" lon="2.6549870967865"><ele></ele><time>2025-9-24T5:14:26Z</time></trkpt>
<trkpt lat="48.879428863525" lon="2.6549067497253"><ele></ele><time>2025-9-24T5:14:29Z</time></trkpt>
<trkpt lat="48.879386901855" lon="2.6548311710358"><ele></ele><time>2025-9-24T5:14:32Z</time></trkpt>
<trkpt lat="48.879318237305" lon="2.6547260284424"><ele></ele><time>2025-9-24T5:14:35Z</time></trkpt>
<trkpt lat="48.879234313965" lon="2.6545872688293"><ele></ele><time>2025-9-24T5:14:38Z</time></trkpt>
<trkpt lat="48.879154205322" lon="2.6544556617737"><ele></ele><time>2025-9-24T5:14:41Z</time></trkpt>
<trkpt lat="48.879108428955" lon="2.6543865203857"><ele></ele><time>2025-9-24T5:14:44Z</time></trkpt>
<trkpt lat="48.879051208496" lon="2.6542701721191"><ele></ele><time>2025-9-24T5:14:47Z</time></trkpt>
<trkpt lat="48.879051208496" lon="2.6542701721191"><ele></ele><time>2025-9-24T5:14:50Z</time></trkpt>
<trkpt lat="48.878982543945" lon="2.654146194458"><ele></ele><time>2025-9-24T5:14:53Z</time></trkpt>
<trkpt lat="48.878982543945" lon="2.654146194458"><ele></ele><time>2025-9-24T5:14:56Z</time></trkpt>
<trkpt lat="48.878917694092" lon="2.6540081501007"><ele></ele><time>2025-9-24T5:14:59Z</time></trkpt>
<trkpt lat="48.878868103027" lon="2.6539168357849"><ele></ele><time>2025-9-24T5:15:2Z</time></trkpt>
<trkpt lat="48.878826141357" lon="2.6538429260254"><ele></ele><time>2025-9-24T5:15:5Z</time></trkpt>
<trkpt lat="48.878768920898" lon="2.6537430286407"><ele></ele><time>2025-9-24T5:15:8Z</time></trkpt>
<trkpt lat="48.878768920898" lon="2.6537430286407"><ele></ele><time>2025-9-24T5:15:11Z</time></trkpt>
<trkpt lat="48.878688812256" lon="2.6535985469818"><ele></ele><time>2025-9-24T5:15:14Z</time></trkpt>
<trkpt lat="48.878639221191" lon="2.6535348892212"><ele></ele><time>2025-9-24T5:15:17Z</time></trkpt>
<trkpt lat="48.87858581543" lon="2.6534721851349"><ele></ele><time>2025-9-24T5:15:20Z</time></trkpt>
<trkpt lat="48.878551483154" lon="2.65336561203"><ele></ele><time>2025-9-24T5:15:23Z</time></trkpt>
<trkpt lat="48.878551483154" lon="2.65336561203"><ele></ele><time>2025-9-24T5:15:26Z</time></trkpt>
<trkpt lat="48.878593444824" lon="2.6532640457153"><ele></ele><time>2025-9-24T5:15:29Z</time></trkpt>
<trkpt lat="48.878593444824" lon="2.6532640457153"><ele></ele><time>2025-9-24T5:15:32Z</time></trkpt>
<trkpt lat="48.878658294678" lon="2.6531195640564"><ele></ele><time>2025-9-24T5:15:35Z</time></trkpt>
<trkpt lat="48.878723144531" lon="2.6530067920685"><ele></ele><time>2025-9-24T5:15:38Z</time></trkpt>
<trkpt lat="48.878810882568" lon="2.6529033184052"><ele></ele><time>2025-9-24T5:15:41Z</time></trkpt>
<trkpt lat="48.878860473633" lon="2.6528475284576"><ele></ele><time>2025-9-24T5:15:44Z</time></trkpt>
<trkpt lat="48.87890625" lon="2.6527996063232"><ele></ele><time>2025-9-24T5:15:47Z</time></trkpt>
<trkpt lat="48.87890625" lon="2.6527996063232"><ele></ele><time>2025-9-24T5:15:50Z</time></trkpt>
<trkpt lat="48.878982543945" lon="2.652731180191"><ele></ele><time>2025-9-24T5:15:53Z</time></trkpt>
<trkpt lat="48.878982543945" lon="2.652731180191"><ele></ele><time>2025-9-24T5:15:56Z</time></trkpt>
<trkpt lat="48.879009246826" lon="2.6525824069977"><ele></ele><time>2025-9-24T5:15:59Z</time></trkpt>
<trkpt lat="48.87899017334" lon="2.6524777412415"><ele></ele><time>2025-9-24T5:16:2Z</time></trkpt>
<trkpt lat="48.878955841064" lon="2.6523401737213"><ele></ele><time>2025-9-24T5:16:5Z</time></trkpt>
<trkpt lat="48.878932952881" lon="2.6522340774536"><ele></ele><time>2025-9-24T5:16:8Z</time></trkpt>
<trkpt lat="48.878925323486" lon="2.6521279811859"><ele></ele><time>2025-9-24T5:16:11Z</time></trkpt>
<trkpt lat="48.878925323486" lon="2.6520380973816"><ele></ele><time>2025-9-24T5:16:14Z</time></trkpt>
<trkpt lat="48.878921508789" lon="2.6519479751587"><ele></ele><time>2025-9-24T5:16:17Z</time></trkpt>
<trkpt lat="48.878913879395" lon="2.6518495082855"><ele></ele><time>2025-9-24T5:16:20Z</time></trkpt>
<trkpt lat="48.878910064697" lon="2.6517603397369"><ele></ele><time>2025-9-24T5:16:23Z</time></trkpt>
<trkpt lat="48.878910064697" lon="2.6517603397369"><ele></ele><time>2025-9-24T5:16:26Z</time></trkpt>
<trkpt lat="48.878910064697" lon="2.6516041755676"><ele></ele><time>2025-9-24T5:16:29Z</time></trkpt>
<trkpt lat="48.878910064697" lon="2.6516041755676"><ele></ele><time>2025-9-24T5:16:32Z</time></trkpt>
<trkpt lat="48.878902435303" lon="2.6514587402344"><ele></ele><time>2025-9-24T5:16:35Z</time></trkpt>
<trkpt lat="48.878902435303" lon="2.6514587402344"><ele></ele><time>2025-9-24T5:16:38Z</time></trkpt>
<trkpt lat="48.878898620605" lon="2.6513526439667"><ele></ele><time>2025-9-24T5:16:41Z</time></trkpt>
<trkpt lat="48.878898620605" lon="2.6513526439667"><ele></ele><time>2025-9-24T5:16:44Z</time></trkpt>
<trkpt lat="48.878845214844" lon="2.6513018608093"><ele></ele><time>2025-9-24T5:16:47Z</time></trkpt>
<trkpt lat="48.878776550293" lon="2.6513085365295"><ele></ele><time>2025-9-24T5:16:50Z</time></trkpt>
<trkpt lat="48.878704071045" lon="2.6513183116913"><ele></ele><time>2025-9-24T5:16:53Z</time></trkpt>
<trkpt lat="48.878639221191" lon="2.6513390541077"><ele></ele><time>2025-9-24T5:16:56Z</time></trkpt>
<trkpt lat="48.878574371338" lon="2.6513543128967"><ele></ele><time>2025-9-24T5:16:59Z</time></trkpt>
<trkpt lat="48.878505706787" lon="2.6513617038727"><ele></ele><time>2025-9-24T5:17:2Z</time></trkpt>
<trkpt lat="48.878444671631" lon="2.6513760089874"><ele></ele><time>2025-9-24T5:17:5Z</time></trkpt>
<trkpt lat="48.878391265869" lon="2.6513857841492"><ele></ele><time>2025-9-24T5:17:8Z</time></trkpt>
<trkpt lat="48.87833404541" lon="2.651394367218"><ele></ele><time>2025-9-24T5:17:11Z</time></trkpt>
<trkpt lat="48.878284454346" lon="2.6514003276825"><ele></ele><time>2025-9-24T5:17:14Z</time></trkpt>
<trkpt lat="48.878227233887" lon="2.6514136791229"><ele></ele><time>2025-9-24T5:17:17Z</time></trkpt>
<trkpt lat="48.878170013428" lon="2.6514327526093"><ele></ele><time>2025-9-24T5:17:20Z</time></trkpt>
<trkpt lat="48.878047943115" lon="2.6514649391174"><ele></ele><time>2025-9-24T5:17:23Z</time></trkpt>
<trkpt lat="48.87797164917" lon="2.6514754295349"><ele></ele><time>2025-9-24T5:17:26Z</time></trkpt>
<trkpt lat="48.877902984619" lon="2.6514880657196"><ele></ele><time>2025-9-24T5:17:29Z</time></trkpt>
<trkpt lat="48.877822875977" lon="2.6515204906464"><ele></ele><time>2025-9-24T5:17:32Z</time></trkpt>
<trkpt lat="48.877754211426" lon="2.6515398025513"><ele></ele><time>2025-9-24T5:17:35Z</time></trkpt>
<trkpt lat="48.877681732178" lon="2.6515545845032"><ele></ele><time>2025-9-24T5:17:38Z</time></trkpt>
<trkpt lat="48.877605438232" lon="2.6515734195709"><ele></ele><time>2025-9-24T5:17:41Z</time></trkpt>
<trkpt lat="48.877536773682" lon="2.6515665054321"><ele></ele><time>2025-9-24T5:17:44Z</time></trkpt>
<trkpt lat="48.877498626709" lon="2.6514909267426"><ele></ele><time>2025-9-24T5:17:47Z</time></trkpt>
<trkpt lat="48.877498626709" lon="2.6514909267426"><ele></ele><time>2025-9-24T5:17:50Z</time></trkpt>
<trkpt lat="48.877460479736" lon="2.6513810157776"><ele></ele><time>2025-9-24T5:17:53Z</time></trkpt>
<trkpt lat="48.87744140625" lon="2.6512796878815"><ele></ele><time>2025-9-24T5:17:56Z</time></trkpt>
<trkpt lat="48.87744140625" lon="2.6512796878815"><ele></ele><time>2025-9-24T5:17:59Z</time></trkpt>
<trkpt lat="48.877445220947" lon="2.6511490345001"><ele></ele><time>2025-9-24T5:18:2Z</time></trkpt>
<trkpt lat="48.877445220947" lon="2.6511490345001"><ele></ele><time>2025-9-24T5:18:5Z</time></trkpt>
<trkpt lat="48.877422332764" lon="2.6510360240936"><ele></ele><time>2025-9-24T5:18:8Z</time></trkpt>
<trkpt lat="48.877422332764" lon="2.6510360240936"><ele></ele><time>2025-9-24T5:18:11Z</time></trkpt>
<trkpt lat="48.877422332764" lon="2.6510360240936"><ele></ele><time>2025-9-24T5:18:14Z</time></trkpt>
<trkpt lat="48.877422332764" lon="2.6510360240936"><ele></ele><time>2025-9-24T5:18:17Z</time></trkpt>
<trkpt lat="48.877422332764" lon="2.6510360240936"><ele></ele><time>2025-9-24T5:18:20Z</time></trkpt>
<trkpt lat="48.877426147461" lon="2.6511228084564"><ele></ele><time>2025-9-24T5:18:23Z</time></trkpt>
<trkpt lat="48.877433776855" lon="2.651257276535"><ele></ele><time>2025-9-24T5:18:26Z</time></trkpt>
<trkpt lat="48.877452850342" lon="2.6514158248901"><ele></ele><time>2025-9-24T5:18:29Z</time></trkpt>
<trkpt lat="48.877460479736" lon="2.6515340805054"><ele></ele><time>2025-9-24T5:18:32Z</time></trkpt>
<trkpt lat="48.877464294434" lon="2.6516683101654"><ele></ele><time>2025-9-24T5:18:35Z</time></trkpt>
<trkpt lat="48.877449035645" lon="2.6517684459686"><ele></ele><time>2025-9-24T5:18:38Z</time></trkpt>
<trkpt lat="48.877445220947" lon="2.6519384384155"><ele></ele><time>2025-9-24T5:18:41Z</time></trkpt>
<trkpt lat="48.877445220947" lon="2.6519384384155"><ele></ele><time>2025-9-24T5:18:44Z</time></trkpt>
<trkpt lat="48.877510070801" lon="2.6520204544067"><ele></ele><time>2025-9-24T5:18:47Z</time></trkpt>
<trkpt lat="48.877510070801" lon="2.6520204544067"><ele></ele><time>2025-9-24T5:18:50Z</time></trkpt>
<trkpt lat="48.877510070801" lon="2.6520204544067"><ele></ele><time>2025-9-24T5:18:53Z</time></trkpt>
<trkpt lat="48.877510070801" lon="2.6520204544067"><ele></ele><time>2025-9-24T5:18:56Z</time></trkpt>
<trkpt lat="48.877487182617" lon="2.6519260406494"><ele></ele><time>2025-9-24T5:18:59Z</time></trkpt>
<trkpt lat="48.877475738525" lon="2.6517412662506"><ele></ele><time>2025-9-24T5:19:2Z</time></trkpt>
<trkpt lat="48.877449035645" lon="2.6515955924988"><ele></ele><time>2025-9-24T5:19:5Z</time></trkpt>
<trkpt lat="48.877422332764" lon="2.6514775753021"><ele></ele><time>2025-9-24T5:19:8Z</time></trkpt>
<trkpt lat="48.877414703369" lon="2.6513895988464"><ele></ele><time>2025-9-24T5:19:11Z</time></trkpt>
<trkpt lat="48.877418518066" lon="2.651290178299"><ele></ele><time>2025-9-24T5:19:14Z</time></trkpt>
<trkpt lat="48.877445220947" lon="2.6511378288269"><ele></ele><time>2025-9-24T5:19:17Z</time></trkpt>
<trkpt lat="48.877460479736" lon="2.6509861946106"><ele></ele><time>2025-9-24T5:19:20Z</time></trkpt>
<trkpt lat="48.877464294434" lon="2.6508913040161"><ele></ele><time>2025-9-24T5:19:23Z</time></trkpt>
<trkpt lat="48.877468109131" lon="2.6507971286774"><ele></ele><time>2025-9-24T5:19:26Z</time></trkpt>
<trkpt lat="48.877471923828" lon="2.6506884098053"><ele></ele><time>2025-9-24T5:19:29Z</time></trkpt>
<trkpt lat="48.877475738525" lon="2.650532245636"><ele></ele><time>2025-9-24T5:19:32Z</time></trkpt>
<trkpt lat="48.877468109131" lon="2.6503722667694"><ele></ele><time>2025-9-24T5:19:35Z</time></trkpt>
<trkpt lat="48.877468109131" lon="2.6501960754395"><ele></ele><time>2025-9-24T5:19:38Z</time></trkpt>
<trkpt lat="48.877464294434" lon="2.650009393692"><ele></ele><time>2025-9-24T5:19:41Z</time></trkpt>
<trkpt lat="48.877449035645" lon="2.6498711109161"><ele></ele><time>2025-9-24T5:19:44Z</time></trkpt>
<trkpt lat="48.877433776855" lon="2.6497559547424"><ele></ele><time>2025-9-24T5:19:47Z</time></trkpt>
<trkpt lat="48.877426147461" lon="2.6496036052704"><ele></ele><time>2025-9-24T5:19:50Z</time></trkpt>
<trkpt lat="48.877414703369" lon="2.6495139598846"><ele></ele><time>2025-9-24T5:19:53Z</time></trkpt>
<trkpt lat="48.877372741699" lon="2.6494326591492"><ele></ele><time>2025-9-24T5:19:56Z</time></trkpt>
<trkpt lat="48.877372741699" lon="2.6494326591492"><ele></ele><time>2025-9-24T5:19:59Z</time></trkpt>
<trkpt lat="48.87731552124" lon="2.6493813991547"><ele></ele><time>2025-9-24T5:20:2Z</time></trkpt>
<trkpt lat="48.87731552124" lon="2.6493813991547"><ele></ele><time>2025-9-24T5:20:5Z</time></trkpt>
<trkpt lat="48.87731552124" lon="2.6493813991547"><ele></ele><time>2025-9-24T5:20:8Z</time></trkpt>
<trkpt lat="48.877269744873" lon="2.649359703064"><ele></ele><time>2025-9-24T5:20:11Z</time></trkpt>
<trkpt lat="48.877227783203" lon="2.6493253707886"><ele></ele><time>2025-9-24T5:20:14Z</time></trkpt>
<trkpt lat="48.87718963623" lon="2.6492912769318"><ele></ele><time>2025-9-24T5:20:17Z</time></trkpt>
<trkpt lat="48.877147674561" lon="2.649257183075"><ele></ele><time>2025-9-24T5:20:20Z</time></trkpt>
<trkpt lat="48.877113342285" lon="2.6492307186127"><ele></ele><time>2025-9-24T5:20:23Z</time></trkpt>
<trkpt lat="48.877044677734" lon="2.6491913795471"><ele></ele><time>2025-9-24T5:20:26Z</time></trkpt>
<trkpt lat="48.876941680908" lon="2.649153470993"><ele></ele><time>2025-9-24T5:20:29Z</time></trkpt>
<trkpt lat="48.876853942871" lon="2.6491014957428"><ele></ele><time>2025-9-24T5:20:32Z</time></trkpt>
<trkpt lat="48.876853942871" lon="2.6491014957428"><ele></ele><time>2025-9-24T5:20:35Z</time></trkpt>
<trkpt lat="48.876873016357" lon="2.6489689350128"><ele></ele><time>2025-9-24T5:20:38Z</time></trkpt>
<trkpt lat="48.876907348633" lon="2.648877620697"><ele></ele><time>2025-9-24T5:20:41Z</time></trkpt>
<trkpt lat="48.876926422119" lon="2.648784160614"><ele></ele><time>2025-9-24T5:20:44Z</time></trkpt>
<trkpt lat="48.876918792725" lon="2.6486001014709"><ele></ele><time>2025-9-24T5:20:47Z</time></trkpt>
<trkpt lat="48.876918792725" lon="2.6484823226929"><ele></ele><time>2025-9-24T5:20:50Z</time></trkpt>
<trkpt lat="48.876941680908" lon="2.6483526229858"><ele></ele><time>2025-9-24T5:20:53Z</time></trkpt>
<trkpt lat="48.876979827881" lon="2.6482715606689"><ele></ele><time>2025-9-24T5:20:56Z</time></trkpt>
<trkpt lat="48.877090454102" lon="2.64821434021"><ele></ele><time>2025-9-24T5:20:59Z</time></trkpt>
<trkpt lat="48.877155303955" lon="2.6481959819794"><ele></ele><time>2025-9-24T5:21:2Z</time></trkpt>
<trkpt lat="48.877155303955" lon="2.6481959819794"><ele></ele><time>2025-9-24T5:21:5Z</time></trkpt>
<trkpt lat="48.877250671387" lon="2.6481285095215"><ele></ele><time>2025-9-24T5:21:8Z</time></trkpt>
<trkpt lat="48.877311706543" lon="2.6480703353882"><ele></ele><time>2025-9-24T5:21:11Z</time></trkpt>
<trkpt lat="48.877361297607" lon="2.6480250358582"><ele></ele><time>2025-9-24T5:21:14Z</time></trkpt>
<trkpt lat="48.877361297607" lon="2.6480250358582"><ele></ele><time>2025-9-24T5:21:17Z</time></trkpt>
<trkpt lat="48.877452850342" lon="2.6479368209839"><ele></ele><time>2025-9-24T5:21:20Z</time></trkpt>
<trkpt lat="48.877452850342" lon="2.6479368209839"><ele></ele><time>2025-9-24T5:21:23Z</time></trkpt>
<trkpt lat="48.877552032471" lon="2.647937297821"><ele></ele><time>2025-9-24T5:21:26Z</time></trkpt>
<trkpt lat="48.877552032471" lon="2.647937297821"><ele></ele><time>2025-9-24T5:21:29Z</time></trkpt>
<trkpt lat="48.877635955811" lon="2.6479637622833"><ele></ele><time>2025-9-24T5:21:32Z</time></trkpt>
<trkpt lat="48.877700805664" lon="2.6479985713959"><ele></ele><time>2025-9-24T5:21:35Z</time></trkpt>
<trkpt lat="48.87776184082" lon="2.6480128765106"><ele></ele><time>2025-9-24T5:21:38Z</time></trkpt>
<trkpt lat="48.87776184082" lon="2.6480128765106"><ele></ele><time>2025-9-24T5:21:41Z</time></trkpt>
<trkpt lat="48.877834320068" lon="2.6480302810669"><ele></ele><time>2025-9-24T5:21:44Z</time></trkpt>
<trkpt lat="48.877834320068" lon="2.6480302810669"><ele></ele><time>2025-9-24T5:21:47Z</time></trkpt>
<trkpt lat="48.877910614014" lon="2.6480259895325"><ele></ele><time>2025-9-24T5:21:50Z</time></trkpt>
<trkpt lat="48.877910614014" lon="2.6480259895325"><ele></ele><time>2025-9-24T5:21:53Z</time></trkpt>
<trkpt lat="48.877983093262" lon="2.6480028629303"><ele></ele><time>2025-9-24T5:21:56Z</time></trkpt>
<trkpt lat="48.878036499023" lon="2.6479644775391"><ele></ele><time>2025-9-24T5:21:59Z</time></trkpt>
<trkpt lat="48.878093719482" lon="2.6479163169861"><ele></ele><time>2025-9-24T5:22:2Z</time></trkpt>
<trkpt lat="48.878093719482" lon="2.6479163169861"><ele></ele><time>2025-9-24T5:22:5Z</time></trkpt>
<trkpt lat="48.878173828125" lon="2.6478505134583"><ele></ele><time>2025-9-24T5:22:8Z</time></trkpt>
<trkpt lat="48.878173828125" lon="2.6478505134583"><ele></ele><time>2025-9-24T5:22:11Z</time></trkpt>
<trkpt lat="48.878242492676" lon="2.6477565765381"><ele></ele><time>2025-9-24T5:22:14Z</time></trkpt>
<trkpt lat="48.878242492676" lon="2.6477565765381"><ele></ele><time>2025-9-24T5:22:17Z</time></trkpt>
<trkpt lat="48.878288269043" lon="2.647686958313"><ele></ele><time>2025-9-24T5:22:20Z</time></trkpt>
<trkpt lat="48.878288269043" lon="2.647686958313"><ele></ele><time>2025-9-24T5:22:23Z</time></trkpt>
<trkpt lat="48.878345489502" lon="2.6476695537567"><ele></ele><time>2025-9-24T5:22:26Z</time></trkpt>
<trkpt lat="48.878345489502" lon="2.6476695537567"><ele></ele><time>2025-9-24T5:22:29Z</time></trkpt>
<trkpt lat="48.878444671631" lon="2.647723197937"><ele></ele><time>2025-9-24T5:22:32Z</time></trkpt>
<trkpt lat="48.878513336182" lon="2.6477720737457"><ele></ele><time>2025-9-24T5:22:35Z</time></trkpt>
<trkpt lat="48.878589630127" lon="2.647807598114"><ele></ele><time>2025-9-24T5:22:38Z</time></trkpt>
<trkpt lat="48.878665924072" lon="2.6478371620178"><ele></ele><time>2025-9-24T5:22:41Z</time></trkpt>
<trkpt lat="48.878749847412" lon="2.6478796005249"><ele></ele><time>2025-9-24T5:22:44Z</time></trkpt>
<trkpt lat="48.87882232666" lon="2.6479218006134"><ele></ele><time>2025-9-24T5:22:47Z</time></trkpt>
<trkpt lat="48.878890991211" lon="2.6479644775391"><ele></ele><time>2025-9-24T5:22:50Z</time></trkpt>
<trkpt lat="48.878952026367" lon="2.6479887962341"><ele></ele><time>2025-9-24T5:22:53Z</time></trkpt>
<trkpt lat="48.879009246826" lon="2.647997379303"><ele></ele><time>2025-9-24T5:22:56Z</time></trkpt>
<trkpt lat="48.879009246826" lon="2.647997379303"><ele></ele><time>2025-9-24T5:22:59Z</time></trkpt>
<trkpt lat="48.879112243652" lon="2.6480515003204"><ele></ele><time>2025-9-24T5:23:2Z</time></trkpt>
<trkpt lat="48.879169464111" lon="2.6480705738068"><ele></ele><time>2025-9-24T5:23:5Z</time></trkpt>
<trkpt lat="48.879241943359" lon="2.6480977535248"><ele></ele><time>2025-9-24T5:23:8Z</time></trkpt>
<trkpt lat="48.87931060791" lon="2.6481182575226"><ele></ele><time>2025-9-24T5:23:11Z</time></trkpt>
<trkpt lat="48.879371643066" lon="2.6481378078461"><ele></ele><time>2025-9-24T5:23:14Z</time></trkpt>
<trkpt lat="48.879447937012" lon="2.6481747627258"><ele></ele><time>2025-9-24T5:23:17Z</time></trkpt>
<trkpt lat="48.879524230957" lon="2.6482210159302"><ele></ele><time>2025-9-24T5:23:20Z</time></trkpt>
<trkpt lat="48.879596710205" lon="2.6482665538788"><ele></ele><time>2025-9-24T5:23:23Z</time></trkpt>
<trkpt lat="48.879699707031" lon="2.6483218669891"><ele></ele><time>2025-9-24T5:23:26Z</time></trkpt>
<trkpt lat="48.879776000977" lon="2.6483495235443"><ele></ele><time>2025-9-24T5:23:29Z</time></trkpt>
<trkpt lat="48.879863739014" lon="2.6483850479126"><ele></ele><time>2025-9-24T5:23:32Z</time></trkpt>
<trkpt lat="48.879955291748" lon="2.6484208106995"><ele></ele><time>2025-9-24T5:23:35Z</time></trkpt>
<trkpt lat="48.880027770996" lon="2.6484417915344"><ele></ele><time>2025-9-24T5:23:38Z</time></trkpt>
<trkpt lat="48.880100250244" lon="2.6484568119049"><ele></ele><time>2025-9-24T5:23:41Z</time></trkpt>
<trkpt lat="48.880165100098" lon="2.6484637260437"><ele></ele><time>2025-9-24T5:23:44Z</time></trkpt>
<trkpt lat="48.880229949951" lon="2.6484959125519"><ele></ele><time>2025-9-24T5:23:47Z</time></trkpt>
<trkpt lat="48.880290985107" lon="2.6485269069672"><ele></ele><time>2025-9-24T5:23:50Z</time></trkpt>
<trkpt lat="48.880367279053" lon="2.6485657691956"><ele></ele><time>2025-9-24T5:23:53Z</time></trkpt>
<trkpt lat="48.880462646484" lon="2.6486113071442"><ele></ele><time>2025-9-24T5:23:56Z</time></trkpt>
<trkpt lat="48.880561828613" lon="2.6486604213715"><ele></ele><time>2025-9-24T5:23:59Z</time></trkpt>
<trkpt lat="48.880676269531" lon="2.648716211319"><ele></ele><time>2025-9-24T5:24:2Z</time></trkpt>
<trkpt lat="48.880786895752" lon="2.648766040802"><ele></ele><time>2025-9-24T5:24:5Z</time></trkpt>
<trkpt lat="48.880874633789" lon="2.6487834453583"><ele></ele><time>2025-9-24T5:24:8Z</time></trkpt>
<trkpt lat="48.880970001221" lon="2.6487951278687"><ele></ele><time>2025-9-24T5:24:11Z</time></trkpt>
<trkpt lat="48.881057739258" lon="2.6488251686096"><ele></ele><time>2025-9-24T5:24:14Z</time></trkpt>
<trkpt lat="48.881153106689" lon="2.648857831955"><ele></ele><time>2025-9-24T5:24:17Z</time></trkpt>
<trkpt lat="48.88126373291" lon="2.6488909721375"><ele></ele><time>2025-9-24T5:24:20Z</time></trkpt>
<trkpt lat="48.881362915039" lon="2.6488921642303"><ele></ele><time>2025-9-24T5:24:23Z</time></trkpt>
<trkpt lat="48.881443023682" lon="2.6488502025604"><ele></ele><time>2025-9-24T5:24:26Z</time></trkpt>
<trkpt lat="48.881523132324" lon="2.6487770080566"><ele></ele><time>2025-9-24T5:24:29Z</time></trkpt>
<trkpt lat="48.881622314453" lon="2.6487028598785"><ele></ele><time>2025-9-24T5:24:32Z</time></trkpt>
<trkpt lat="48.881706237793" lon="2.6486241817474"><ele></ele><time>2025-9-24T5:24:35Z</time></trkpt>
<trkpt lat="48.881771087646" lon="2.648542881012"><ele></ele><time>2025-9-24T5:24:38Z</time></trkpt>
<trkpt lat="48.88179397583" lon="2.648446559906"><ele></ele><time>2025-9-24T5:24:41Z</time></trkpt>
<trkpt lat="48.88179397583" lon="2.648446559906"><ele></ele><time>2025-9-24T5:24:44Z</time></trkpt>
<trkpt lat="48.881797790527" lon="2.6482963562012"><ele></ele><time>2025-9-24T5:24:47Z</time></trkpt>
<trkpt lat="48.881797790527" lon="2.6482963562012"><ele></ele><time>2025-9-24T5:24:50Z</time></trkpt>
<trkpt lat="48.881755828857" lon="2.648104429245"><ele></ele><time>2025-9-24T5:24:53Z</time></trkpt>
<trkpt lat="48.881729125977" lon="2.6479818820953"><ele></ele><time>2025-9-24T5:24:56Z</time></trkpt>
<trkpt lat="48.881717681885" lon="2.6478736400604"><ele></ele><time>2025-9-24T5:24:59Z</time></trkpt>
<trkpt lat="48.881713867188" lon="2.6477677822113"><ele></ele><time>2025-9-24T5:25:2Z</time></trkpt>
<trkpt lat="48.881736755371" lon="2.6476480960846"><ele></ele><time>2025-9-24T5:25:5Z</time></trkpt>
<trkpt lat="48.881763458252" lon="2.6475696563721"><ele></ele><time>2025-9-24T5:25:8Z</time></trkpt>
<trkpt lat="48.881790161133" lon="2.6474821567535"><ele></ele><time>2025-9-24T5:25:11Z</time></trkpt>
<trkpt lat="48.8818359375" lon="2.6473531723022"><ele></ele><time>2025-9-24T5:25:14Z</time></trkpt>
<trkpt lat="48.881870269775" lon="2.6472721099854"><ele></ele><time>2025-9-24T5:25:17Z</time></trkpt>
<trkpt lat="48.881896972656" lon="2.6471881866455"><ele></ele><time>2025-9-24T5:25:20Z</time></trkpt>
<trkpt lat="48.881931304932" lon="2.6470913887024"><ele></ele><time>2025-9-24T5:25:23Z</time></trkpt>
<trkpt lat="48.881965637207" lon="2.6469893455505"><ele></ele><time>2025-9-24T5:25:26Z</time></trkpt>
<trkpt lat="48.881992340088" lon="2.6468946933746"><ele></ele><time>2025-9-24T5:25:29Z</time></trkpt>
<trkpt lat="48.882030487061" lon="2.6467883586884"><ele></ele><time>2025-9-24T5:25:32Z</time></trkpt>
<trkpt lat="48.882061004639" lon="2.6467039585114"><ele></ele><time>2025-9-24T5:25:35Z</time></trkpt>
<trkpt lat="48.882083892822" lon="2.6466228961945"><ele></ele><time>2025-9-24T5:25:38Z</time></trkpt>
<trkpt lat="48.882106781006" lon="2.6465184688568"><ele></ele><time>2025-9-24T5:25:41Z</time></trkpt>
<trkpt lat="48.882133483887" lon="2.6464302539825"><ele></ele><time>2025-9-24T5:25:44Z</time></trkpt>
<trkpt lat="48.882133483887" lon="2.6464302539825"><ele></ele><time>2025-9-24T5:25:47Z</time></trkpt>
<trkpt lat="48.882144927979" lon="2.6463069915771"><ele></ele><time>2025-9-24T5:25:50Z</time></trkpt>
<trkpt lat="48.882144927979" lon="2.6463069915771"><ele></ele><time>2025-9-24T5:25:53Z</time></trkpt>
<trkpt lat="48.882144927979" lon="2.6461763381958"><ele></ele><time>2025-9-24T5:25:56Z</time></trkpt>
<trkpt lat="48.882144927979" lon="2.6461763381958"><ele></ele><time>2025-9-24T5:25:59Z</time></trkpt>
<trkpt lat="48.882160186768" lon="2.6460070610046"><ele></ele><time>2025-9-24T5:26:2Z</time></trkpt>
<trkpt lat="48.882144927979" lon="2.6458749771118"><ele></ele><time>2025-9-24T5:26:5Z</time></trkpt>
<trkpt lat="48.882141113281" lon="2.6457755565643"><ele></ele><time>2025-9-24T5:26:8Z</time></trkpt>
<trkpt lat="48.882144927979" lon="2.6456348896027"><ele></ele><time>2025-9-24T5:26:11Z</time></trkpt>
<trkpt lat="48.882144927979" lon="2.6456348896027"><ele></ele><time>2025-9-24T5:26:14Z</time></trkpt>
<trkpt lat="48.882133483887" lon="2.6455013751984"><ele></ele><time>2025-9-24T5:26:17Z</time></trkpt>
<trkpt lat="48.882133483887" lon="2.6455013751984"><ele></ele><time>2025-9-24T5:26:20Z</time></trkpt>
<trkpt lat="48.882133483887" lon="2.6453323364258"><ele></ele><time>2025-9-24T5:26:23Z</time></trkpt>
<trkpt lat="48.882133483887" lon="2.6453323364258"><ele></ele><time>2025-9-24T5:26:26Z</time></trkpt>
<trkpt lat="48.882125854492" lon="2.6452708244324"><ele></ele><time>2025-9-24T5:26:29Z</time></trkpt>
<trkpt lat="48.882122039795" lon="2.6452231407166"><ele></ele><time>2025-9-24T5:26:32Z</time></trkpt>
<trkpt lat="48.882122039795" lon="2.6452231407166"><ele></ele><time>2025-9-24T5:26:35Z</time></trkpt>
<trkpt lat="48.882122039795" lon="2.6452231407166"><ele></ele><time>2025-9-24T5:26:38Z</time></trkpt>
<trkpt lat="48.882122039795" lon="2.6452231407166"><ele></ele><time>2025-9-24T5:26:41Z</time></trkpt>
<trkpt lat="48.882102966309" lon="2.6450209617615"><ele></ele><time>2025-9-24T5:26:44Z</time></trkpt>
<trkpt lat="48.882083892822" lon="2.6448791027069"><ele></ele><time>2025-9-24T5:26:47Z</time></trkpt>
<trkpt lat="48.882064819336" lon="2.6447830200195"><ele></ele><time>2025-9-24T5:26:50Z</time></trkpt>
<trkpt lat="48.882038116455" lon="2.6447238922119"><ele></ele><time>2025-9-24T5:26:53Z</time></trkpt>
<trkpt lat="48.881999969482" lon="2.644679069519"><ele></ele><time>2025-9-24T5:26:56Z</time></trkpt>
<trkpt lat="48.881999969482" lon="2.644679069519"><ele></ele><time>2025-9-24T5:26:59Z</time></trkpt>
<trkpt lat="48.88187789917" lon="2.6445817947388"><ele></ele><time>2025-9-24T5:27:2Z</time></trkpt>
<trkpt lat="48.881820678711" lon="2.6445610523224"><ele></ele><time>2025-9-24T5:27:5Z</time></trkpt>
<trkpt lat="48.88175201416" lon="2.6445360183716"><ele></ele><time>2025-9-24T5:27:8Z</time></trkpt>
<trkpt lat="48.881690979004" lon="2.6445114612579"><ele></ele><time>2025-9-24T5:27:11Z</time></trkpt>
<trkpt lat="48.881629943848" lon="2.6444880962372"><ele></ele><time>2025-9-24T5:27:14Z</time></trkpt>
<trkpt lat="48.881561279297" lon="2.6444592475891"><ele></ele><time>2025-9-24T5:27:17Z</time></trkpt>
<trkpt lat="48.881481170654" lon="2.6444234848022"><ele></ele><time>2025-9-24T5:27:20Z</time></trkpt>
<trkpt lat="48.881420135498" lon="2.6443951129913"><ele></ele><time>2025-9-24T5:27:23Z</time></trkpt>
<trkpt lat="48.881351470947" lon="2.6443681716919"><ele></ele><time>2025-9-24T5:27:26Z</time></trkpt>
<trkpt lat="48.881282806396" lon="2.6443364620209"><ele></ele><time>2025-9-24T5:27:29Z</time></trkpt>
<trkpt lat="48.881229400635" lon="2.6443045139313"><ele></ele><time>2025-9-24T5:27:32Z</time></trkpt>
<trkpt lat="48.881160736084" lon="2.644279718399"><ele></ele><time>2025-9-24T5:27:35Z</time></trkpt>
<trkpt lat="48.881038665771" lon="2.644228219986"><ele></ele><time>2025-9-24T5:27:38Z</time></trkpt>
<trkpt lat="48.880962371826" lon="2.6442008018494"><ele></ele><time>2025-9-24T5:27:41Z</time></trkpt>
<trkpt lat="48.880886077881" lon="2.644163608551"><ele></ele><time>2025-9-24T5:27:44Z</time></trkpt>
<trkpt lat="48.880809783936" lon="2.6441247463226"><ele></ele><time>2025-9-24T5:27:47Z</time></trkpt>
<trkpt lat="48.880714416504" lon="2.6440944671631"><ele></ele><time>2025-9-24T5:27:50Z</time></trkpt>
<trkpt lat="48.880619049072" lon="2.6440567970276"><ele></ele><time>2025-9-24T5:27:53Z</time></trkpt>
<trkpt lat="48.880542755127" lon="2.6440374851227"><ele></ele><time>2025-9-24T5:27:56Z</time></trkpt>
<trkpt lat="48.880474090576" lon="2.6440210342407"><ele></ele><time>2025-9-24T5:27:59Z</time></trkpt>
<trkpt lat="48.880401611328" lon="2.6440031528473"><ele></ele><time>2025-9-24T5:28:2Z</time></trkpt>
<trkpt lat="48.88032913208" lon="2.6439783573151"><ele></ele><time>2025-9-24T5:28:5Z</time></trkpt>
<trkpt lat="48.880249023438" lon="2.6439447402954"><ele></ele><time>2025-9-24T5:28:8Z</time></trkpt>
<trkpt lat="48.880176544189" lon="2.6439185142517"><ele></ele><time>2025-9-24T5:28:11Z</time></trkpt>
<trkpt lat="48.880115509033" lon="2.6438965797424"><ele></ele><time>2025-9-24T5:28:14Z</time></trkpt>
<trkpt lat="48.880115509033" lon="2.6438965797424"><ele></ele><time>2025-9-24T5:28:17Z</time></trkpt>
<trkpt lat="48.880065917969" lon="2.6438543796539"><ele></ele><time>2025-9-24T5:28:20Z</time></trkpt>
<trkpt lat="48.880065917969" lon="2.6438543796539"><ele></ele><time>2025-9-24T5:28:23Z</time></trkpt>
<trkpt lat="48.879997253418" lon="2.6438083648682"><ele></ele><time>2025-9-24T5:28:26Z</time></trkpt>
<trkpt lat="48.879936218262" lon="2.6437721252441"><ele></ele><time>2025-9-24T5:28:29Z</time></trkpt>
<trkpt lat="48.879878997803" lon="2.6437351703644"><ele></ele><time>2025-9-24T5:28:32Z</time></trkpt>
<trkpt lat="48.879878997803" lon="2.6437351703644"><ele></ele><time>2025-9-24T5:28:35Z</time></trkpt>
<trkpt lat="48.879772186279" lon="2.6436452865601"><ele></ele><time>2025-9-24T5:28:38Z</time></trkpt>
<trkpt lat="48.879695892334" lon="2.6436038017273"><ele></ele><time>2025-9-24T5:28:41Z</time></trkpt>
<trkpt lat="48.879619598389" lon="2.6435585021973"><ele></ele><time>2025-9-24T5:28:44Z</time></trkpt>
<trkpt lat="48.879550933838" lon="2.6435177326202"><ele></ele><time>2025-9-24T5:28:47Z</time></trkpt>
<trkpt lat="48.879486083984" lon="2.643486738205"><ele></ele><time>2025-9-24T5:28:50Z</time></trkpt>
<trkpt lat="48.879421234131" lon="2.6434478759766"><ele></ele><time>2025-9-24T5:28:53Z</time></trkpt>
<trkpt lat="48.879348754883" lon="2.6434109210968"><ele></ele><time>2025-9-24T5:28:56Z</time></trkpt>
<trkpt lat="48.879261016846" lon="2.6433665752411"><ele></ele><time>2025-9-24T5:28:59Z</time></trkpt>
<trkpt lat="48.8791847229" lon="2.6433248519897"><ele></ele><time>2025-9-24T5:29:2Z</time></trkpt>
<trkpt lat="48.879108428955" lon="2.64328789711"><ele></ele><time>2025-9-24T5:29:5Z</time></trkpt>
<trkpt lat="48.87903213501" lon="2.6432538032532"><ele></ele><time>2025-9-24T5:29:8Z</time></trkpt>
<trkpt lat="48.878963470459" lon="2.643221616745"><ele></ele><time>2025-9-24T5:29:11Z</time></trkpt>
<trkpt lat="48.878883361816" lon="2.6431798934937"><ele></ele><time>2025-9-24T5:29:14Z</time></trkpt>
<trkpt lat="48.878787994385" lon="2.6431202888489"><ele></ele><time>2025-9-24T5:29:17Z</time></trkpt>
<trkpt lat="48.87869644165" lon="2.6430599689484"><ele></ele><time>2025-9-24T5:29:20Z</time></trkpt>
<trkpt lat="48.878604888916" lon="2.643002986908"><ele></ele><time>2025-9-24T5:29:23Z</time></trkpt>
<trkpt lat="48.878520965576" lon="2.6429419517517"><ele></ele><time>2025-9-24T5:29:26Z</time></trkpt>
<trkpt lat="48.878444671631" lon="2.6428806781769"><ele></ele><time>2025-9-24T5:29:29Z</time></trkpt>
<trkpt lat="48.878387451172" lon="2.6428391933441"><ele></ele><time>2025-9-24T5:29:32Z</time></trkpt>
<trkpt lat="48.878322601318" lon="2.6428081989288"><ele></ele><time>2025-9-24T5:29:35Z</time></trkpt>
<trkpt lat="48.878253936768" lon="2.6427509784698"><ele></ele><time>2025-9-24T5:29:38Z</time></trkpt>
<trkpt lat="48.878253936768" lon="2.6427509784698"><ele></ele><time>2025-9-24T5:29:41Z</time></trkpt>
<trkpt lat="48.878253936768" lon="2.6426343917847"><ele></ele><time>2025-9-24T5:29:44Z</time></trkpt>
<trkpt lat="48.878253936768" lon="2.6426343917847"><ele></ele><time>2025-9-24T5:29:47Z</time></trkpt>
<trkpt lat="48.878288269043" lon="2.6424899101257"><ele></ele><time>2025-9-24T5:29:50Z</time></trkpt>
<trkpt lat="48.878288269043" lon="2.6424899101257"><ele></ele><time>2025-9-24T5:29:53Z</time></trkpt>
<trkpt lat="48.878341674805" lon="2.6423635482788"><ele></ele><time>2025-9-24T5:29:56Z</time></trkpt>
<trkpt lat="48.878341674805" lon="2.6423635482788"><ele></ele><time>2025-9-24T5:29:59Z</time></trkpt>
<trkpt lat="48.878341674805" lon="2.6423635482788"><ele></ele><time>2025-9-24T5:30:2Z</time></trkpt>
<trkpt lat="48.878372192383" lon="2.6422696113586"><ele></ele><time>2025-9-24T5:30:5Z</time></trkpt>
<trkpt lat="48.878372192383" lon="2.6422696113586"><ele></ele><time>2025-9-24T5:30:8Z</time></trkpt>
<trkpt lat="48.878372192383" lon="2.6422696113586"><ele></ele><time>2025-9-24T5:30:11Z</time></trkpt>
<trkpt lat="48.878372192383" lon="2.6422696113586"><ele></ele><time>2025-9-24T5:30:14Z</time></trkpt>
<trkpt lat="48.878398895264" lon="2.6420812606812"><ele></ele><time>2025-9-24T5:30:17Z</time></trkpt>
<trkpt lat="48.878425598145" lon="2.6420006752014"><ele></ele><time>2025-9-24T5:30:20Z</time></trkpt>
<trkpt lat="48.878448486328" lon="2.6419141292572"><ele></ele><time>2025-9-24T5:30:23Z</time></trkpt>
<trkpt lat="48.878490447998" lon="2.6418220996857"><ele></ele><time>2025-9-24T5:30:26Z</time></trkpt>
<trkpt lat="48.878490447998" lon="2.6418220996857"><ele></ele><time>2025-9-24T5:30:29Z</time></trkpt>
<trkpt lat="48.878517150879" lon="2.6416957378387"><ele></ele><time>2025-9-24T5:30:32Z</time></trkpt>
<trkpt lat="48.878517150879" lon="2.6416957378387"><ele></ele><time>2025-9-24T5:30:35Z</time></trkpt>
<trkpt lat="48.87854385376" lon="2.6416077613831"><ele></ele><time>2025-9-24T5:30:38Z</time></trkpt>
<trkpt lat="48.878582000732" lon="2.6414661407471"><ele></ele><time>2025-9-24T5:30:41Z</time></trkpt>
<trkpt lat="48.878608703613" lon="2.6413838863373"><ele></ele><time>2025-9-24T5:30:44Z</time></trkpt>
<trkpt lat="48.878643035889" lon="2.6413018703461"><ele></ele><time>2025-9-24T5:30:47Z</time></trkpt>
<trkpt lat="48.878681182861" lon="2.6412148475647"><ele></ele><time>2025-9-24T5:30:50Z</time></trkpt>
<trkpt lat="48.878700256348" lon="2.6411292552948"><ele></ele><time>2025-9-24T5:30:53Z</time></trkpt>
<trkpt lat="48.878749847412" lon="2.6409561634064"><ele></ele><time>2025-9-24T5:30:56Z</time></trkpt>
<trkpt lat="48.878772735596" lon="2.6408498287201"><ele></ele><time>2025-9-24T5:30:59Z</time></trkpt>
<trkpt lat="48.878810882568" lon="2.6407518386841"><ele></ele><time>2025-9-24T5:31:2Z</time></trkpt>
<trkpt lat="48.878833770752" lon="2.6406695842743"><ele></ele><time>2025-9-24T5:31:5Z</time></trkpt>
<trkpt lat="48.878856658936" lon="2.6405682563782"><ele></ele><time>2025-9-24T5:31:8Z</time></trkpt>
<trkpt lat="48.878875732422" lon="2.6404376029968"><ele></ele><time>2025-9-24T5:31:11Z</time></trkpt>
<trkpt lat="48.878913879395" lon="2.6403319835663"><ele></ele><time>2025-9-24T5:31:14Z</time></trkpt>
<trkpt lat="48.87894821167" lon="2.6402592658997"><ele></ele><time>2025-9-24T5:31:17Z</time></trkpt>
<trkpt lat="48.878978729248" lon="2.6401824951172"><ele></ele><time>2025-9-24T5:31:20Z</time></trkpt>
<trkpt lat="48.878978729248" lon="2.6401824951172"><ele></ele><time>2025-9-24T5:31:23Z</time></trkpt>
<trkpt lat="48.879001617432" lon="2.6401150226593"><ele></ele><time>2025-9-24T5:31:26Z</time></trkpt>
<trkpt lat="48.879028320312" lon="2.6400439739227"><ele></ele><time>2025-9-24T5:31:29Z</time></trkpt>
<trkpt lat="48.879055023193" lon="2.6399631500244"><ele></ele><time>2025-9-24T5:31:32Z</time></trkpt>
<trkpt lat="48.879081726074" lon="2.6398649215698"><ele></ele><time>2025-9-24T5:31:35Z</time></trkpt>
<trkpt lat="48.879077911377" lon="2.6397633552551"><ele></ele><time>2025-9-24T5:31:38Z</time></trkpt>
<trkpt lat="48.879070281982" lon="2.6395792961121"><ele></ele><time>2025-9-24T5:31:41Z</time></trkpt>
<trkpt lat="48.879096984863" lon="2.6394646167755"><ele></ele><time>2025-9-24T5:31:44Z</time></trkpt>
<trkpt lat="48.879135131836" lon="2.6393775939941"><ele></ele><time>2025-9-24T5:31:47Z</time></trkpt>
<trkpt lat="48.879135131836" lon="2.6393775939941"><ele></ele><time>2025-9-24T5:31:50Z</time></trkpt>
<trkpt lat="48.8791847229" lon="2.6392467021942"><ele></ele><time>2025-9-24T5:31:53Z</time></trkpt>
<trkpt lat="48.879207611084" lon="2.6391589641571"><ele></ele><time>2025-9-24T5:31:56Z</time></trkpt>
<trkpt lat="48.879222869873" lon="2.6390755176544"><ele></ele><time>2025-9-24T5:31:59Z</time></trkpt>
<trkpt lat="48.879276275635" lon="2.6389343738556"><ele></ele><time>2025-9-24T5:32:2Z</time></trkpt>
<trkpt lat="48.879318237305" lon="2.6387851238251"><ele></ele><time>2025-9-24T5:32:5Z</time></trkpt>
<trkpt lat="48.879360198975" lon="2.6386153697968"><ele></ele><time>2025-9-24T5:32:8Z</time></trkpt>
<trkpt lat="48.879390716553" lon="2.6385192871094"><ele></ele><time>2025-9-24T5:32:11Z</time></trkpt>
<trkpt lat="48.879390716553" lon="2.6385192871094"><ele></ele><time>2025-9-24T5:32:14Z</time></trkpt>
<trkpt lat="48.879432678223" lon="2.6383576393127"><ele></ele><time>2025-9-24T5:32:17Z</time></trkpt>
<trkpt lat="48.879432678223" lon="2.6383576393127"><ele></ele><time>2025-9-24T5:32:20Z</time></trkpt>
<trkpt lat="48.879470825195" lon="2.6382663249969"><ele></ele><time>2025-9-24T5:32:23Z</time></trkpt>
<trkpt lat="48.879470825195" lon="2.6382663249969"><ele></ele><time>2025-9-24T5:32:26Z</time></trkpt>
<trkpt lat="48.879543304443" lon="2.6382384300232"><ele></ele><time>2025-9-24T5:32:29Z</time></trkpt>
<trkpt lat="48.879543304443" lon="2.6382384300232"><ele></ele><time>2025-9-24T5:32:32Z</time></trkpt>
<trkpt lat="48.879615783691" lon="2.6382739543915"><ele></ele><time>2025-9-24T5:32:35Z</time></trkpt>
<trkpt lat="48.879669189453" lon="2.6383149623871"><ele></ele><time>2025-9-24T5:32:38Z</time></trkpt>
<trkpt lat="48.879730224609" lon="2.6383562088013"><ele></ele><time>2025-9-24T5:32:41Z</time></trkpt>
<trkpt lat="48.879802703857" lon="2.6384110450745"><ele></ele><time>2025-9-24T5:32:44Z</time></trkpt>
<trkpt lat="48.879871368408" lon="2.6384701728821"><ele></ele><time>2025-9-24T5:32:47Z</time></trkpt>
<trkpt lat="48.879936218262" lon="2.6385185718536"><ele></ele><time>2025-9-24T5:32:50Z</time></trkpt>
<trkpt lat="48.879989624023" lon="2.6385524272919"><ele></ele><time>2025-9-24T5:32:53Z</time></trkpt>
<trkpt lat="48.879989624023" lon="2.6385524272919"><ele></ele><time>2025-9-24T5:32:56Z</time></trkpt>
<trkpt lat="48.88009262085" lon="2.638619184494"><ele></ele><time>2025-9-24T5:32:59Z</time></trkpt>
<trkpt lat="48.880146026611" lon="2.638664484024"><ele></ele><time>2025-9-24T5:33:2Z</time></trkpt>
<trkpt lat="48.880222320557" lon="2.638733625412"><ele></ele><time>2025-9-24T5:33:5Z</time></trkpt>
<trkpt lat="48.88028717041" lon="2.6388006210327"><ele></ele><time>2025-9-24T5:33:8Z</time></trkpt>
<trkpt lat="48.880352020264" lon="2.6388311386108"><ele></ele><time>2025-9-24T5:33:11Z</time></trkpt>
<trkpt lat="48.880416870117" lon="2.638857126236"><ele></ele><time>2025-9-24T5:33:14Z</time></trkpt>
<trkpt lat="48.880489349365" lon="2.6388921737671"><ele></ele><time>2025-9-24T5:33:17Z</time></trkpt>
<trkpt lat="48.880565643311" lon="2.6389400959015"><ele></ele><time>2025-9-24T5:33:20Z</time></trkpt>
<trkpt lat="48.88064956665" lon="2.6389849185944"><ele></ele><time>2025-9-24T5:33:23Z</time></trkpt>
<trkpt lat="48.880714416504" lon="2.6390166282654"><ele></ele><time>2025-9-24T5:33:26Z</time></trkpt>
<trkpt lat="48.880828857422" lon="2.6390845775604"><ele></ele><time>2025-9-24T5:33:29Z</time></trkpt>
<trkpt lat="48.88090133667" lon="2.6391322612762"><ele></ele><time>2025-9-24T5:33:32Z</time></trkpt>
<trkpt lat="48.880989074707" lon="2.6391789913177"><ele></ele><time>2025-9-24T5:33:35Z</time></trkpt>
<trkpt lat="48.881076812744" lon="2.6391756534576"><ele></ele><time>2025-9-24T5:33:38Z</time></trkpt>
<trkpt lat="48.881076812744" lon="2.6391756534576"><ele></ele><time>2025-9-24T5:33:41Z</time></trkpt>
<trkpt lat="48.881145477295" lon="2.6390588283539"><ele></ele><time>2025-9-24T5:33:44Z</time></trkpt>
<trkpt lat="48.881191253662" lon="2.6389625072479"><ele></ele><time>2025-9-24T5:33:47Z</time></trkpt>
<trkpt lat="48.881259918213" lon="2.638810634613"><ele></ele><time>2025-9-24T5:33:50Z</time></trkpt>
<trkpt lat="48.881294250488" lon="2.6387026309967"><ele></ele><time>2025-9-24T5:33:53Z</time></trkpt>
<trkpt lat="48.881317138672" lon="2.6386225223541"><ele></ele><time>2025-9-24T5:33:56Z</time></trkpt>
<trkpt lat="48.881351470947" lon="2.6384682655334"><ele></ele><time>2025-9-24T5:33:59Z</time></trkpt>
<trkpt lat="48.88134765625" lon="2.6382846832275"><ele></ele><time>2025-9-24T5:34:2Z</time></trkpt>
<trkpt lat="48.88134765625" lon="2.6382846832275"><ele></ele><time>2025-9-24T5:34:5Z</time></trkpt>
<trkpt lat="48.881309509277" lon="2.6381304264069"><ele></ele><time>2025-9-24T5:34:8Z</time></trkpt>
<trkpt lat="48.881298065186" lon="2.6380336284637"><ele></ele><time>2025-9-24T5:34:11Z</time></trkpt>
<trkpt lat="48.881298065186" lon="2.6379282474518"><ele></ele><time>2025-9-24T5:34:14Z</time></trkpt>
<trkpt lat="48.881298065186" lon="2.6378216743469"><ele></ele><time>2025-9-24T5:34:17Z</time></trkpt>
<trkpt lat="48.881286621094" lon="2.6377205848694"><ele></ele><time>2025-9-24T5:34:20Z</time></trkpt>
<trkpt lat="48.881286621094" lon="2.6376113891602"><ele></ele><time>2025-9-24T5:34:23Z</time></trkpt>
<trkpt lat="48.881301879883" lon="2.6375076770782"><ele></ele><time>2025-9-24T5:34:26Z</time></trkpt>
<trkpt lat="48.881324768066" lon="2.6374189853668"><ele></ele><time>2025-9-24T5:34:29Z</time></trkpt>
<trkpt lat="48.881359100342" lon="2.6373360157013"><ele></ele><time>2025-9-24T5:34:32Z</time></trkpt>
<trkpt lat="48.881401062012" lon="2.6372654438019"><ele></ele><time>2025-9-24T5:34:35Z</time></trkpt>
<trkpt lat="48.881454467773" lon="2.6371574401855"><ele></ele><time>2025-9-24T5:34:38Z</time></trkpt>
<trkpt lat="48.881492614746" lon="2.6370494365692"><ele></ele><time>2025-9-24T5:34:41Z</time></trkpt>
<trkpt lat="48.881530761719" lon="2.6369366645813"><ele></ele><time>2025-9-24T5:34:44Z</time></trkpt>
<trkpt lat="48.8815574646" lon="2.6368355751038"><ele></ele><time>2025-9-24T5:34:47Z</time></trkpt>
<trkpt lat="48.8815574646" lon="2.6368355751038"><ele></ele><time>2025-9-24T5:34:50Z</time></trkpt>
<trkpt lat="48.881580352783" lon="2.6367151737213"><ele></ele><time>2025-9-24T5:34:53Z</time></trkpt>
<trkpt lat="48.881580352783" lon="2.6367151737213"><ele></ele><time>2025-9-24T5:34:56Z</time></trkpt>
<trkpt lat="48.881591796875" lon="2.6365809440613"><ele></ele><time>2025-9-24T5:34:59Z</time></trkpt>
<trkpt lat="48.881591796875" lon="2.6365809440613"><ele></ele><time>2025-9-24T5:35:2Z</time></trkpt>
<trkpt lat="48.88162612915" lon="2.6364402770996"><ele></ele><time>2025-9-24T5:35:5Z</time></trkpt>
<trkpt lat="48.881652832031" lon="2.6363484859467"><ele></ele><time>2025-9-24T5:35:8Z</time></trkpt>
<trkpt lat="48.881687164307" lon="2.636280298233"><ele></ele><time>2025-9-24T5:35:11Z</time></trkpt>
<trkpt lat="48.881759643555" lon="2.6362359523773"><ele></ele><time>2025-9-24T5:35:14Z</time></trkpt>
<trkpt lat="48.881851196289" lon="2.6362895965576"><ele></ele><time>2025-9-24T5:35:17Z</time></trkpt>
<trkpt lat="48.881946563721" lon="2.6363744735718"><ele></ele><time>2025-9-24T5:35:20Z</time></trkpt>
<trkpt lat="48.882053375244" lon="2.6364550590515"><ele></ele><time>2025-9-24T5:35:23Z</time></trkpt>
<trkpt lat="48.8821144104" lon="2.6365003585815"><ele></ele><time>2025-9-24T5:35:26Z</time></trkpt>
<trkpt lat="48.882217407227" lon="2.6365571022034"><ele></ele><time>2025-9-24T5:35:29Z</time></trkpt>
<trkpt lat="48.882274627686" lon="2.6365864276886"><ele></ele><time>2025-9-24T5:35:32Z</time></trkpt>
<trkpt lat="48.882347106934" lon="2.6366314888"><ele></ele><time>2025-9-24T5:35:35Z</time></trkpt>
<trkpt lat="48.882411956787" lon="2.6366522312164"><ele></ele><time>2025-9-24T5:35:38Z</time></trkpt>
<trkpt lat="48.882465362549" lon="2.6366097927094"><ele></ele><time>2025-9-24T5:35:41Z</time></trkpt>
<trkpt lat="48.882465362549" lon="2.6366097927094"><ele></ele><time>2025-9-24T5:35:44Z</time></trkpt>
<trkpt lat="48.882476806641" lon="2.6364290714264"><ele></ele><time>2025-9-24T5:35:47Z</time></trkpt>
<trkpt lat="48.882472991943" lon="2.6363310813904"><ele></ele><time>2025-9-24T5:35:50Z</time></trkpt>
<trkpt lat="48.882465362549" lon="2.6362211704254"><ele></ele><time>2025-9-24T5:35:53Z</time></trkpt>
<trkpt lat="48.882457733154" lon="2.6361021995544"><ele></ele><time>2025-9-24T5:35:56Z</time></trkpt>
<trkpt lat="48.882461547852" lon="2.6360051631927"><ele></ele><time>2025-9-24T5:35:59Z</time></trkpt>
<trkpt lat="48.882453918457" lon="2.6359031200409"><ele></ele><time>2025-9-24T5:36:2Z</time></trkpt>
<trkpt lat="48.882446289062" lon="2.6357793807983"><ele></ele><time>2025-9-24T5:36:5Z</time></trkpt>
<trkpt lat="48.882431030273" lon="2.6356391906738"><ele></ele><time>2025-9-24T5:36:8Z</time></trkpt>
<trkpt lat="48.882419586182" lon="2.6355092525482"><ele></ele><time>2025-9-24T5:36:11Z</time></trkpt>
<trkpt lat="48.88240814209" lon="2.6353936195374"><ele></ele><time>2025-9-24T5:36:14Z</time></trkpt>
<trkpt lat="48.882404327393" lon="2.6352691650391"><ele></ele><time>2025-9-24T5:36:17Z</time></trkpt>
<trkpt lat="48.882392883301" lon="2.6351521015167"><ele></ele><time>2025-9-24T5:36:20Z</time></trkpt>
<trkpt lat="48.882381439209" lon="2.6350362300873"><ele></ele><time>2025-9-24T5:36:23Z</time></trkpt>
<trkpt lat="48.882373809814" lon="2.6349222660065"><ele></ele><time>2025-9-24T5:36:26Z</time></trkpt>
<trkpt lat="48.882362365723" lon="2.6348075866699"><ele></ele><time>2025-9-24T5:36:29Z</time></trkpt>
<trkpt lat="48.882347106934" lon="2.6346938610077"><ele></ele><time>2025-9-24T5:36:32Z</time></trkpt>
<trkpt lat="48.882335662842" lon="2.6345772743225"><ele></ele><time>2025-9-24T5:36:35Z</time></trkpt>
<trkpt lat="48.882320404053" lon="2.6344633102417"><ele></ele><time>2025-9-24T5:36:38Z</time></trkpt>
<trkpt lat="48.882320404053" lon="2.6343548297882"><ele></ele><time>2025-9-24T5:36:41Z</time></trkpt>
<trkpt lat="48.882328033447" lon="2.634242773056"><ele></ele><time>2025-9-24T5:36:44Z</time></trkpt>
<trkpt lat="48.882328033447" lon="2.6341490745544"><ele></ele><time>2025-9-24T5:36:47Z</time></trkpt>
<trkpt lat="48.882320404053" lon="2.6340568065643"><ele></ele><time>2025-9-24T5:36:50Z</time></trkpt>
<trkpt lat="48.882316589355" lon="2.6339514255524"><ele></ele><time>2025-9-24T5:36:53Z</time></trkpt>
<trkpt lat="48.882312774658" lon="2.633846282959"><ele></ele><time>2025-9-24T5:36:56Z</time></trkpt>
<trkpt lat="48.882305145264" lon="2.6337282657623"><ele></ele><time>2025-9-24T5:36:59Z</time></trkpt>
<trkpt lat="48.882305145264" lon="2.6336193084717"><ele></ele><time>2025-9-24T5:37:2Z</time></trkpt>
<trkpt lat="48.882305145264" lon="2.6335220336914"><ele></ele><time>2025-9-24T5:37:5Z</time></trkpt>
<trkpt lat="48.882305145264" lon="2.6335220336914"><ele></ele><time>2025-9-24T5:37:8Z</time></trkpt>
<trkpt lat="48.882343292236" lon="2.6333403587341"><ele></ele><time>2025-9-24T5:37:11Z</time></trkpt>
<trkpt lat="48.882343292236" lon="2.6333403587341"><ele></ele><time>2025-9-24T5:37:14Z</time></trkpt>
<trkpt lat="48.882434844971" lon="2.6332535743713"><ele></ele><time>2025-9-24T5:37:17Z</time></trkpt>
<trkpt lat="48.882476806641" lon="2.6331901550293"><ele></ele><time>2025-9-24T5:37:20Z</time></trkpt>
<trkpt lat="48.882499694824" lon="2.6330769062042"><ele></ele><time>2025-9-24T5:37:23Z</time></trkpt>
<trkpt lat="48.882495880127" lon="2.6329867839813"><ele></ele><time>2025-9-24T5:37:26Z</time></trkpt>
<trkpt lat="48.88249206543" lon="2.6328730583191"><ele></ele><time>2025-9-24T5:37:29Z</time></trkpt>
<trkpt lat="48.882484436035" lon="2.6327540874481"><ele></ele><time>2025-9-24T5:37:32Z</time></trkpt>
<trkpt lat="48.882476806641" lon="2.6326372623444"><ele></ele><time>2025-9-24T5:37:35Z</time></trkpt>
<trkpt lat="48.882469177246" lon="2.6325116157532"><ele></ele><time>2025-9-24T5:37:38Z</time></trkpt>
<trkpt lat="48.882453918457" lon="2.6323873996735"><ele></ele><time>2025-9-24T5:37:41Z</time></trkpt>
<trkpt lat="48.882442474365" lon="2.6322777271271"><ele></ele><time>2025-9-24T5:37:44Z</time></trkpt>
<trkpt lat="48.882427215576" lon="2.6321754455566"><ele></ele><time>2025-9-24T5:37:47Z</time></trkpt>
<trkpt lat="48.882415771484" lon="2.6320683956146"><ele></ele><time>2025-9-24T5:37:50Z</time></trkpt>
<trkpt lat="48.882419586182" lon="2.6319506168365"><ele></ele><time>2025-9-24T5:37:53Z</time></trkpt>
<trkpt lat="48.882442474365" lon="2.6318466663361"><ele></ele><time>2025-9-24T5:37:56Z</time></trkpt>
<trkpt lat="48.882472991943" lon="2.6317398548126"><ele></ele><time>2025-9-24T5:37:59Z</time></trkpt>
<trkpt lat="48.882495880127" lon="2.6316530704498"><ele></ele><time>2025-9-24T5:38:2Z</time></trkpt>
<trkpt lat="48.882495880127" lon="2.6316530704498"><ele></ele><time>2025-9-24T5:38:5Z</time></trkpt>
<trkpt lat="48.882530212402" lon="2.6314606666565"><ele></ele><time>2025-9-24T5:38:8Z</time></trkpt>
<trkpt lat="48.882549285889" lon="2.6313724517822"><ele></ele><time>2025-9-24T5:38:11Z</time></trkpt>
<trkpt lat="48.882549285889" lon="2.6313724517822"><ele></ele><time>2025-9-24T5:38:14Z</time></trkpt>
<trkpt lat="48.882583618164" lon="2.6312103271484"><ele></ele><time>2025-9-24T5:38:17Z</time></trkpt>
<trkpt lat="48.882610321045" lon="2.6311235427856"><ele></ele><time>2025-9-24T5:38:20Z</time></trkpt>
<trkpt lat="48.882637023926" lon="2.6310324668884"><ele></ele><time>2025-9-24T5:38:23Z</time></trkpt>
<trkpt lat="48.882659912109" lon="2.6309447288513"><ele></ele><time>2025-9-24T5:38:26Z</time></trkpt>
<trkpt lat="48.88268661499" lon="2.6308422088623"><ele></ele><time>2025-9-24T5:38:29Z</time></trkpt>
<trkpt lat="48.882705688477" lon="2.6307609081268"><ele></ele><time>2025-9-24T5:38:32Z</time></trkpt>
<trkpt lat="48.882732391357" lon="2.630667924881"><ele></ele><time>2025-9-24T5:38:35Z</time></trkpt>
<trkpt lat="48.882759094238" lon="2.6305735111237"><ele></ele><time>2025-9-24T5:38:38Z</time></trkpt>
<trkpt lat="48.882778167725" lon="2.6304869651794"><ele></ele><time>2025-9-24T5:38:41Z</time></trkpt>
<trkpt lat="48.882797241211" lon="2.6304032802582"><ele></ele><time>2025-9-24T5:38:44Z</time></trkpt>
<trkpt lat="48.882797241211" lon="2.6304032802582"><ele></ele><time>2025-9-24T5:38:47Z</time></trkpt>
<trkpt lat="48.882873535156" lon="2.6303346157074"><ele></ele><time>2025-9-24T5:38:50Z</time></trkpt>
<trkpt lat="48.882873535156" lon="2.6303346157074"><ele></ele><time>2025-9-24T5:38:53Z</time></trkpt>
<trkpt lat="48.882919311523" lon="2.6303453445435"><ele></ele><time>2025-9-24T5:38:56Z</time></trkpt>
<trkpt lat="48.882976531982" lon="2.6303660869598"><ele></ele><time>2025-9-24T5:38:59Z</time></trkpt>
<trkpt lat="48.883029937744" lon="2.6303932666779"><ele></ele><time>2025-9-24T5:39:2Z</time></trkpt>
<trkpt lat="48.883079528809" lon="2.6304240226746"><ele></ele><time>2025-9-24T5:39:5Z</time></trkpt>
<trkpt lat="48.883129119873" lon="2.6304607391357"><ele></ele><time>2025-9-24T5:39:8Z</time></trkpt>
<trkpt lat="48.88321685791" lon="2.6305341720581"><ele></ele><time>2025-9-24T5:39:11Z</time></trkpt>
<trkpt lat="48.88321685791" lon="2.6305341720581"><ele></ele><time>2025-9-24T5:39:14Z</time></trkpt>
<trkpt lat="48.883293151855" lon="2.6305556297302"><ele></ele><time>2025-9-24T5:39:17Z</time></trkpt>
<trkpt lat="48.883293151855" lon="2.6305556297302"><ele></ele><time>2025-9-24T5:39:20Z</time></trkpt>
<trkpt lat="48.883407592773" lon="2.6305961608887"><ele></ele><time>2025-9-24T5:39:23Z</time></trkpt>
<trkpt lat="48.883476257324" lon="2.6306338310242"><ele></ele><time>2025-9-24T5:39:26Z</time></trkpt>
<trkpt lat="48.883533477783" lon="2.6306810379028"><ele></ele><time>2025-9-24T5:39:29Z</time></trkpt>
<trkpt lat="48.88362121582" lon="2.6307516098022"><ele></ele><time>2025-9-24T5:39:32Z</time></trkpt>
<trkpt lat="48.88362121582" lon="2.6307516098022"><ele></ele><time>2025-9-24T5:39:35Z</time></trkpt>
<trkpt lat="48.883739471436" lon="2.6307947635651"><ele></ele><time>2025-9-24T5:39:38Z</time></trkpt>
<trkpt lat="48.883804321289" lon="2.6308233737946"><ele></ele><time>2025-9-24T5:39:41Z</time></trkpt>
<trkpt lat="48.883892059326" lon="2.6308283805847"><ele></ele><time>2025-9-24T5:39:44Z</time></trkpt>
<trkpt lat="48.883949279785" lon="2.6307926177979"><ele></ele><time>2025-9-24T5:39:47Z</time></trkpt>
<trkpt lat="48.883995056152" lon="2.6307365894318"><ele></ele><time>2025-9-24T5:39:50Z</time></trkpt>
<trkpt lat="48.883995056152" lon="2.6307365894318"><ele></ele><time>2025-9-24T5:39:53Z</time></trkpt>
<trkpt lat="48.883995056152" lon="2.6307365894318"><ele></ele><time>2025-9-24T5:39:56Z</time></trkpt>
<trkpt lat="48.883995056152" lon="2.6307365894318"><ele></ele><time>2025-9-24T5:39:59Z</time></trkpt>
</trkseg></trk></gpx>